<?xml version='1.0' encoding='UTF-8'?>
<gpx version="1.1" creator="https://www.komoot.de" xmlns="http://www.topografix.com/GPX/1/1" xmlns:xsi="http://www.w3.org/2001/XMLSchema-instance" xsi:schemaLocation="http://www.topografix.com/GPX/1/1 http://www.topografix.com/GPX/1/1/gpx.xsd">
  <metadata>
    <name>Maurach - Pertisau- Gaisalm</name>
    <author>
      <link href="https://www.komoot.de">
        <text>komoot</text>
        <type>text/html</type>
      </link>
    </author>
  </metadata>
  <trk>
    <name>Maurach - Pertisau- Gaisalm</name>
    <trkseg>
      <trkpt lat="47.424442" lon="11.746017">
        <ele>950.416810</ele>
        <time>2020-09-26T07:42:59.301Z</time>
      </trkpt>
      <trkpt lat="47.424152" lon="11.743703">
        <ele>948.434829</ele>
        <time>2020-09-26T07:43:01.285Z</time>
      </trkpt>
      <trkpt lat="47.424238" lon="11.743645">
        <ele>948.164428</ele>
        <time>2020-09-26T07:43:10.424Z</time>
      </trkpt>
      <trkpt lat="47.424298" lon="11.743538">
        <ele>947.895470</ele>
        <time>2020-09-26T07:43:19.429Z</time>
      </trkpt>
      <trkpt lat="47.424337" lon="11.743408">
        <ele>947.620256</ele>
        <time>2020-09-26T07:43:28.426Z</time>
      </trkpt>
      <trkpt lat="47.424383" lon="11.743280">
        <ele>947.339758</ele>
        <time>2020-09-26T07:43:37.452Z</time>
      </trkpt>
      <trkpt lat="47.424442" lon="11.743172">
        <ele>947.071114</ele>
        <time>2020-09-26T07:43:45.456Z</time>
      </trkpt>
      <trkpt lat="47.424520" lon="11.743103">
        <ele>946.811088</ele>
        <time>2020-09-26T07:43:55.435Z</time>
      </trkpt>
      <trkpt lat="47.424582" lon="11.742992">
        <ele>946.532520</ele>
        <time>2020-09-26T07:44:06.445Z</time>
      </trkpt>
      <trkpt lat="47.424628" lon="11.742873">
        <ele>946.267279</ele>
        <time>2020-09-26T07:44:15.442Z</time>
      </trkpt>
      <trkpt lat="47.424678" lon="11.742762">
        <ele>946.009204</ele>
        <time>2020-09-26T07:44:24.428Z</time>
      </trkpt>
      <trkpt lat="47.424712" lon="11.742632">
        <ele>945.739472</ele>
        <time>2020-09-26T07:44:34.443Z</time>
      </trkpt>
      <trkpt lat="47.424747" lon="11.742505">
        <ele>945.474081</ele>
        <time>2020-09-26T07:44:43.433Z</time>
      </trkpt>
      <trkpt lat="47.424778" lon="11.742375">
        <ele>945.200773</ele>
        <time>2020-09-26T07:44:53.459Z</time>
      </trkpt>
      <trkpt lat="47.424802" lon="11.742235">
        <ele>944.892877</ele>
        <time>2020-09-26T07:45:03.431Z</time>
      </trkpt>
      <trkpt lat="47.424817" lon="11.742090">
        <ele>944.580160</ele>
        <time>2020-09-26T07:45:13.439Z</time>
      </trkpt>
      <trkpt lat="47.424832" lon="11.741952">
        <ele>944.282187</ele>
        <time>2020-09-26T07:45:22.446Z</time>
      </trkpt>
      <trkpt lat="47.424858" lon="11.741813">
        <ele>943.974738</ele>
        <time>2020-09-26T07:45:33.423Z</time>
      </trkpt>
      <trkpt lat="47.424875" lon="11.741682">
        <ele>943.690370</ele>
        <time>2020-09-26T07:45:41.431Z</time>
      </trkpt>
      <trkpt lat="47.424895" lon="11.741550">
        <ele>943.401991</ele>
        <time>2020-09-26T07:45:50.449Z</time>
      </trkpt>
      <trkpt lat="47.424913" lon="11.741408">
        <ele>943.093996</ele>
        <time>2020-09-26T07:46:00.426Z</time>
      </trkpt>
      <trkpt lat="47.424922" lon="11.741263">
        <ele>942.783575</ele>
        <time>2020-09-26T07:46:10.430Z</time>
      </trkpt>
      <trkpt lat="47.424927" lon="11.741113">
        <ele>942.463404</ele>
        <time>2020-09-26T07:46:19.453Z</time>
      </trkpt>
      <trkpt lat="47.424927" lon="11.740978">
        <ele>942.175600</ele>
        <time>2020-09-26T07:46:27.432Z</time>
      </trkpt>
      <trkpt lat="47.424937" lon="11.740833">
        <ele>941.864875</ele>
        <time>2020-09-26T07:46:37.447Z</time>
      </trkpt>
      <trkpt lat="47.424935" lon="11.740690">
        <ele>941.559951</ele>
        <time>2020-09-26T07:46:47.463Z</time>
      </trkpt>
      <trkpt lat="47.424927" lon="11.740542">
        <ele>941.243427</ele>
        <time>2020-09-26T07:46:55.458Z</time>
      </trkpt>
      <trkpt lat="47.424918" lon="11.740408">
        <ele>940.956351</ele>
        <time>2020-09-26T07:47:03.474Z</time>
      </trkpt>
      <trkpt lat="47.424943" lon="11.740267">
        <ele>940.645604</ele>
        <time>2020-09-26T07:47:18.465Z</time>
      </trkpt>
      <trkpt lat="47.424927" lon="11.740135">
        <ele>940.359715</ele>
        <time>2020-09-26T07:47:26.515Z</time>
      </trkpt>
      <trkpt lat="47.424913" lon="11.739990">
        <ele>940.047460</ele>
        <time>2020-09-26T07:47:36.463Z</time>
      </trkpt>
      <trkpt lat="47.424930" lon="11.739848">
        <ele>939.740030</ele>
        <time>2020-09-26T07:47:45.454Z</time>
      </trkpt>
      <trkpt lat="47.424933" lon="11.739702">
        <ele>939.239366</ele>
        <time>2020-09-26T07:47:56.465Z</time>
      </trkpt>
      <trkpt lat="47.424943" lon="11.739557">
        <ele>938.593529</ele>
        <time>2020-09-26T07:48:06.464Z</time>
      </trkpt>
      <trkpt lat="47.424947" lon="11.739410">
        <ele>937.941632</ele>
        <time>2020-09-26T07:48:15.463Z</time>
      </trkpt>
      <trkpt lat="47.424955" lon="11.739268">
        <ele>937.310241</ele>
        <time>2020-09-26T07:48:25.465Z</time>
      </trkpt>
      <trkpt lat="47.424952" lon="11.739120">
        <ele>936.654146</ele>
        <time>2020-09-26T07:48:35.467Z</time>
      </trkpt>
      <trkpt lat="47.424940" lon="11.738988">
        <ele>936.063985</ele>
        <time>2020-09-26T07:48:44.495Z</time>
      </trkpt>
      <trkpt lat="47.424935" lon="11.738855">
        <ele>935.473742</ele>
        <time>2020-09-26T07:48:55.473Z</time>
      </trkpt>
      <trkpt lat="47.424950" lon="11.738710">
        <ele>934.823767</ele>
        <time>2020-09-26T07:49:07.462Z</time>
      </trkpt>
      <trkpt lat="47.424937" lon="11.738570">
        <ele>934.197599</ele>
        <time>2020-09-26T07:49:18.461Z</time>
      </trkpt>
      <trkpt lat="47.424945" lon="11.738435">
        <ele>933.597112</ele>
        <time>2020-09-26T07:49:28.480Z</time>
      </trkpt>
      <trkpt lat="47.424948" lon="11.738298">
        <ele>932.989735</ele>
        <time>2020-09-26T07:49:39.459Z</time>
      </trkpt>
      <trkpt lat="47.424950" lon="11.738157">
        <ele>932.364815</ele>
        <time>2020-09-26T07:49:49.451Z</time>
      </trkpt>
      <trkpt lat="47.424955" lon="11.738023">
        <ele>931.770147</ele>
        <time>2020-09-26T07:49:58.464Z</time>
      </trkpt>
      <trkpt lat="47.424940" lon="11.737892">
        <ele>931.181420</ele>
        <time>2020-09-26T07:50:06.464Z</time>
      </trkpt>
      <trkpt lat="47.424935" lon="11.737752">
        <ele>930.560204</ele>
        <time>2020-09-26T07:50:16.462Z</time>
      </trkpt>
      <trkpt lat="47.424943" lon="11.737618">
        <ele>929.964131</ele>
        <time>2020-09-26T07:50:25.474Z</time>
      </trkpt>
      <trkpt lat="47.424960" lon="11.737482">
        <ele>929.351304</ele>
        <time>2020-09-26T07:50:35.463Z</time>
      </trkpt>
      <trkpt lat="47.424958" lon="11.737335">
        <ele>928.699803</ele>
        <time>2020-09-26T07:50:45.464Z</time>
      </trkpt>
      <trkpt lat="47.424963" lon="11.737193">
        <ele>928.069737</ele>
        <time>2020-09-26T07:50:54.462Z</time>
      </trkpt>
      <trkpt lat="47.424975" lon="11.737062">
        <ele>927.849941</ele>
        <time>2020-09-26T07:51:02.464Z</time>
      </trkpt>
      <trkpt lat="47.424993" lon="11.736928">
        <ele>927.896230</ele>
        <time>2020-09-26T07:51:13.467Z</time>
      </trkpt>
      <trkpt lat="47.425005" lon="11.736792">
        <ele>927.942700</ele>
        <time>2020-09-26T07:51:22.461Z</time>
      </trkpt>
      <trkpt lat="47.425015" lon="11.736653">
        <ele>927.990062</ele>
        <time>2020-09-26T07:51:30.466Z</time>
      </trkpt>
      <trkpt lat="47.425033" lon="11.736522">
        <ele>928.035353</ele>
        <time>2020-09-26T07:51:40.470Z</time>
      </trkpt>
      <trkpt lat="47.425043" lon="11.736385">
        <ele>928.082041</ele>
        <time>2020-09-26T07:51:49.466Z</time>
      </trkpt>
      <trkpt lat="47.425065" lon="11.736242">
        <ele>928.131730</ele>
        <time>2020-09-26T07:51:57.463Z</time>
      </trkpt>
      <trkpt lat="47.425093" lon="11.736112">
        <ele>928.177955</ele>
        <time>2020-09-26T07:52:06.462Z</time>
      </trkpt>
      <trkpt lat="47.425112" lon="11.735975">
        <ele>928.225339</ele>
        <time>2020-09-26T07:52:15.462Z</time>
      </trkpt>
      <trkpt lat="47.425132" lon="11.735842">
        <ele>928.271502</ele>
        <time>2020-09-26T07:52:24.464Z</time>
      </trkpt>
      <trkpt lat="47.425162" lon="11.735707">
        <ele>928.319647</ele>
        <time>2020-09-26T07:52:34.463Z</time>
      </trkpt>
      <trkpt lat="47.425200" lon="11.735587">
        <ele>928.364539</ele>
        <time>2020-09-26T07:52:43.441Z</time>
      </trkpt>
      <trkpt lat="47.425232" lon="11.735460">
        <ele>928.410456</ele>
        <time>2020-09-26T07:52:52.464Z</time>
      </trkpt>
      <trkpt lat="47.425275" lon="11.735337">
        <ele>928.457366</ele>
        <time>2020-09-26T07:53:02.467Z</time>
      </trkpt>
      <trkpt lat="47.425302" lon="11.735208">
        <ele>928.503118</ele>
        <time>2020-09-26T07:53:10.466Z</time>
      </trkpt>
      <trkpt lat="47.425313" lon="11.735063">
        <ele>928.552555</ele>
        <time>2020-09-26T07:53:20.495Z</time>
      </trkpt>
      <trkpt lat="47.425333" lon="11.734922">
        <ele>928.601367</ele>
        <time>2020-09-26T07:53:30.465Z</time>
      </trkpt>
      <trkpt lat="47.425347" lon="11.734777">
        <ele>928.650994</ele>
        <time>2020-09-26T07:53:42.458Z</time>
      </trkpt>
      <trkpt lat="47.425370" lon="11.734637">
        <ele>928.699807</ele>
        <time>2020-09-26T07:53:52.447Z</time>
      </trkpt>
      <trkpt lat="47.425385" lon="11.734505">
        <ele>928.693408</ele>
        <time>2020-09-26T07:54:03.466Z</time>
      </trkpt>
      <trkpt lat="47.425410" lon="11.734377">
        <ele>928.624278</ele>
        <time>2020-09-26T07:54:13.466Z</time>
      </trkpt>
      <trkpt lat="47.425453" lon="11.734252">
        <ele>928.551513</ele>
        <time>2020-09-26T07:54:23.479Z</time>
      </trkpt>
      <trkpt lat="47.425525" lon="11.734143">
        <ele>928.472467</ele>
        <time>2020-09-26T07:54:31.465Z</time>
      </trkpt>
      <trkpt lat="47.425600" lon="11.734053">
        <ele>928.398374</ele>
        <time>2020-09-26T07:54:40.467Z</time>
      </trkpt>
      <trkpt lat="47.425702" lon="11.734018">
        <ele>928.318063</ele>
        <time>2020-09-26T07:55:43.468Z</time>
      </trkpt>
      <trkpt lat="47.425505" lon="11.733967">
        <ele>928.164670</ele>
        <time>2020-09-26T07:56:44.502Z</time>
      </trkpt>
      <trkpt lat="47.425500" lon="11.733833">
        <ele>928.095033</ele>
        <time>2020-09-26T07:56:50.501Z</time>
      </trkpt>
      <trkpt lat="47.425520" lon="11.733683">
        <ele>928.015702</ele>
        <time>2020-09-26T07:56:56.510Z</time>
      </trkpt>
      <trkpt lat="47.425545" lon="11.733538">
        <ele>927.938058</ele>
        <time>2020-09-26T07:57:02.505Z</time>
      </trkpt>
      <trkpt lat="47.425560" lon="11.733398">
        <ele>927.864508</ele>
        <time>2020-09-26T07:57:08.498Z</time>
      </trkpt>
      <trkpt lat="47.425590" lon="11.733260">
        <ele>927.789296</ele>
        <time>2020-09-26T07:57:14.503Z</time>
      </trkpt>
      <trkpt lat="47.425613" lon="11.733128">
        <ele>927.718567</ele>
        <time>2020-09-26T07:57:19.463Z</time>
      </trkpt>
      <trkpt lat="47.425635" lon="11.732990">
        <ele>927.644999</ele>
        <time>2020-09-26T07:57:24.462Z</time>
      </trkpt>
      <trkpt lat="47.425652" lon="11.732842">
        <ele>927.567104</ele>
        <time>2020-09-26T07:57:30.465Z</time>
      </trkpt>
      <trkpt lat="47.425682" lon="11.732702">
        <ele>927.490903</ele>
        <time>2020-09-26T07:57:36.464Z</time>
      </trkpt>
      <trkpt lat="47.425725" lon="11.732582">
        <ele>927.420442</ele>
        <time>2020-09-26T07:57:42.464Z</time>
      </trkpt>
      <trkpt lat="47.425777" lon="11.732460">
        <ele>927.345622</ele>
        <time>2020-09-26T07:57:49.467Z</time>
      </trkpt>
      <trkpt lat="47.425817" lon="11.732323">
        <ele>927.201317</ele>
        <time>2020-09-26T07:59:17.468Z</time>
      </trkpt>
      <trkpt lat="47.425802" lon="11.732192">
        <ele>927.072509</ele>
        <time>2020-09-26T07:59:22.479Z</time>
      </trkpt>
      <trkpt lat="47.425798" lon="11.732055">
        <ele>926.939566</ele>
        <time>2020-09-26T07:59:27.463Z</time>
      </trkpt>
      <trkpt lat="47.425813" lon="11.731917">
        <ele>926.804063</ele>
        <time>2020-09-26T07:59:32.479Z</time>
      </trkpt>
      <trkpt lat="47.425833" lon="11.731770">
        <ele>926.658696</ele>
        <time>2020-09-26T07:59:38.465Z</time>
      </trkpt>
      <trkpt lat="47.425837" lon="11.731625">
        <ele>926.518004</ele>
        <time>2020-09-26T07:59:44.469Z</time>
      </trkpt>
      <trkpt lat="47.425847" lon="11.731483">
        <ele>926.379595</ele>
        <time>2020-09-26T07:59:50.476Z</time>
      </trkpt>
      <trkpt lat="47.425843" lon="11.731343">
        <ele>926.243746</ele>
        <time>2020-09-26T07:59:56.522Z</time>
      </trkpt>
      <trkpt lat="47.425848" lon="11.731195">
        <ele>926.100085</ele>
        <time>2020-09-26T08:00:02.464Z</time>
      </trkpt>
      <trkpt lat="47.425847" lon="11.731057">
        <ele>925.966289</ele>
        <time>2020-09-26T08:00:08.466Z</time>
      </trkpt>
      <trkpt lat="47.425850" lon="11.730923">
        <ele>925.836308</ele>
        <time>2020-09-26T08:00:14.460Z</time>
      </trkpt>
      <trkpt lat="47.425857" lon="11.730772">
        <ele>925.689573</ele>
        <time>2020-09-26T08:00:21.455Z</time>
      </trkpt>
      <trkpt lat="47.425863" lon="11.730632">
        <ele>925.553574</ele>
        <time>2020-09-26T08:00:27.457Z</time>
      </trkpt>
      <trkpt lat="47.425873" lon="11.730480">
        <ele>925.405518</ele>
        <time>2020-09-26T08:00:34.463Z</time>
      </trkpt>
      <trkpt lat="47.425878" lon="11.730338">
        <ele>925.267666</ele>
        <time>2020-09-26T08:00:44.463Z</time>
      </trkpt>
      <trkpt lat="47.425880" lon="11.730203">
        <ele>925.136755</ele>
        <time>2020-09-26T08:00:53.463Z</time>
      </trkpt>
      <trkpt lat="47.425892" lon="11.730063">
        <ele>924.999943</ele>
        <time>2020-09-26T08:01:04.465Z</time>
      </trkpt>
      <trkpt lat="47.425870" lon="11.729928">
        <ele>924.865320</ele>
        <time>2020-09-26T08:01:13.467Z</time>
      </trkpt>
      <trkpt lat="47.425852" lon="11.729783">
        <ele>924.862561</ele>
        <time>2020-09-26T08:01:21.456Z</time>
      </trkpt>
      <trkpt lat="47.425878" lon="11.729655">
        <ele>925.133172</ele>
        <time>2020-09-26T08:01:40.460Z</time>
      </trkpt>
      <trkpt lat="47.425832" lon="11.729482">
        <ele>925.509556</ele>
        <time>2020-09-26T08:02:14.467Z</time>
      </trkpt>
      <trkpt lat="47.425752" lon="11.729417">
        <ele>925.782781</ele>
        <time>2020-09-26T08:02:28.463Z</time>
      </trkpt>
      <trkpt lat="47.425830" lon="11.729280">
        <ele>926.145345</ele>
        <time>2020-09-26T08:03:19.464Z</time>
      </trkpt>
      <trkpt lat="47.425877" lon="11.729167">
        <ele>926.413936</ele>
        <time>2020-09-26T08:03:35.462Z</time>
      </trkpt>
      <trkpt lat="47.425998" lon="11.729198">
        <ele>926.781482</ele>
        <time>2020-09-26T08:04:42.474Z</time>
      </trkpt>
      <trkpt lat="47.426025" lon="11.729065">
        <ele>927.062650</ele>
        <time>2020-09-26T08:04:53.462Z</time>
      </trkpt>
      <trkpt lat="47.426077" lon="11.728948">
        <ele>927.346106</ele>
        <time>2020-09-26T08:05:02.504Z</time>
      </trkpt>
      <trkpt lat="47.426140" lon="11.728843">
        <ele>927.630281</ele>
        <time>2020-09-26T08:05:11.483Z</time>
      </trkpt>
      <trkpt lat="47.426223" lon="11.728755">
        <ele>927.935993</ele>
        <time>2020-09-26T08:05:20.469Z</time>
      </trkpt>
      <trkpt lat="47.426305" lon="11.728682">
        <ele>928.222490</ele>
        <time>2020-09-26T08:05:29.472Z</time>
      </trkpt>
      <trkpt lat="47.426385" lon="11.728612">
        <ele>928.500734</ele>
        <time>2020-09-26T08:05:38.475Z</time>
      </trkpt>
      <trkpt lat="47.426460" lon="11.728530">
        <ele>928.779938</ele>
        <time>2020-09-26T08:05:48.460Z</time>
      </trkpt>
      <trkpt lat="47.426540" lon="11.728463">
        <ele>929.055136</ele>
        <time>2020-09-26T08:05:57.468Z</time>
      </trkpt>
      <trkpt lat="47.426618" lon="11.728378">
        <ele>929.345172</ele>
        <time>2020-09-26T08:06:07.467Z</time>
      </trkpt>
      <trkpt lat="47.426695" lon="11.728302">
        <ele>929.622285</ele>
        <time>2020-09-26T08:06:15.470Z</time>
      </trkpt>
      <trkpt lat="47.426765" lon="11.728205">
        <ele>929.909459</ele>
        <time>2020-09-26T08:06:24.486Z</time>
      </trkpt>
      <trkpt lat="47.426828" lon="11.728102">
        <ele>930.147469</ele>
        <time>2020-09-26T08:06:34.473Z</time>
      </trkpt>
      <trkpt lat="47.426898" lon="11.728017">
        <ele>930.123171</ele>
        <time>2020-09-26T08:06:44.471Z</time>
      </trkpt>
      <trkpt lat="47.426958" lon="11.727905">
        <ele>930.097247</ele>
        <time>2020-09-26T08:06:54.457Z</time>
      </trkpt>
      <trkpt lat="47.427015" lon="11.727798">
        <ele>930.072535</ele>
        <time>2020-09-26T08:07:03.468Z</time>
      </trkpt>
      <trkpt lat="47.427062" lon="11.727673">
        <ele>930.046586</ele>
        <time>2020-09-26T08:07:13.463Z</time>
      </trkpt>
      <trkpt lat="47.427115" lon="11.727550">
        <ele>930.020124</ele>
        <time>2020-09-26T08:07:23.468Z</time>
      </trkpt>
      <trkpt lat="47.427167" lon="11.727425">
        <ele>929.993497</ele>
        <time>2020-09-26T08:07:33.465Z</time>
      </trkpt>
      <trkpt lat="47.427208" lon="11.727305">
        <ele>929.969103</ele>
        <time>2020-09-26T08:07:43.460Z</time>
      </trkpt>
      <trkpt lat="47.427243" lon="11.727180">
        <ele>929.944556</ele>
        <time>2020-09-26T08:07:55.468Z</time>
      </trkpt>
      <trkpt lat="47.427295" lon="11.727065">
        <ele>929.919457</ele>
        <time>2020-09-26T08:08:04.474Z</time>
      </trkpt>
      <trkpt lat="47.427328" lon="11.726940">
        <ele>929.895109</ele>
        <time>2020-09-26T08:08:14.478Z</time>
      </trkpt>
      <trkpt lat="47.427365" lon="11.726813">
        <ele>929.870018</ele>
        <time>2020-09-26T08:08:23.463Z</time>
      </trkpt>
      <trkpt lat="47.427383" lon="11.726667">
        <ele>929.843090</ele>
        <time>2020-09-26T08:08:32.504Z</time>
      </trkpt>
      <trkpt lat="47.427380" lon="11.726533">
        <ele>929.818762</ele>
        <time>2020-09-26T08:08:42.462Z</time>
      </trkpt>
      <trkpt lat="47.427378" lon="11.726388">
        <ele>929.792445</ele>
        <time>2020-09-26T08:08:52.461Z</time>
      </trkpt>
      <trkpt lat="47.427383" lon="11.726243">
        <ele>929.766100</ele>
        <time>2020-09-26T08:09:03.463Z</time>
      </trkpt>
      <trkpt lat="47.427410" lon="11.726112">
        <ele>929.741251</ele>
        <time>2020-09-26T08:09:13.465Z</time>
      </trkpt>
      <trkpt lat="47.427438" lon="11.725977">
        <ele>929.715630</ele>
        <time>2020-09-26T08:09:22.465Z</time>
      </trkpt>
      <trkpt lat="47.427455" lon="11.725845">
        <ele>929.691248</ele>
        <time>2020-09-26T08:09:31.467Z</time>
      </trkpt>
      <trkpt lat="47.427482" lon="11.725712">
        <ele>929.662426</ele>
        <time>2020-09-26T08:09:40.465Z</time>
      </trkpt>
      <trkpt lat="47.427507" lon="11.725572">
        <ele>929.598695</ele>
        <time>2020-09-26T08:09:50.487Z</time>
      </trkpt>
      <trkpt lat="47.427517" lon="11.725438">
        <ele>929.539357</ele>
        <time>2020-09-26T08:09:59.464Z</time>
      </trkpt>
      <trkpt lat="47.427547" lon="11.725312">
        <ele>929.480564</ele>
        <time>2020-09-26T08:10:08.475Z</time>
      </trkpt>
      <trkpt lat="47.427573" lon="11.725177">
        <ele>929.418784</ele>
        <time>2020-09-26T08:10:16.462Z</time>
      </trkpt>
      <trkpt lat="47.427587" lon="11.725035">
        <ele>929.355623</ele>
        <time>2020-09-26T08:10:25.463Z</time>
      </trkpt>
      <trkpt lat="47.427620" lon="11.724902">
        <ele>929.293271</ele>
        <time>2020-09-26T08:10:35.462Z</time>
      </trkpt>
      <trkpt lat="47.427633" lon="11.724767">
        <ele>929.233252</ele>
        <time>2020-09-26T08:10:45.467Z</time>
      </trkpt>
      <trkpt lat="47.427680" lon="11.724642">
        <ele>929.170307</ele>
        <time>2020-09-26T08:10:55.469Z</time>
      </trkpt>
      <trkpt lat="47.427690" lon="11.724505">
        <ele>929.109658</ele>
        <time>2020-09-26T08:11:06.465Z</time>
      </trkpt>
      <trkpt lat="47.427705" lon="11.724363">
        <ele>929.046400</ele>
        <time>2020-09-26T08:11:16.487Z</time>
      </trkpt>
      <trkpt lat="47.427728" lon="11.724233">
        <ele>928.987257</ele>
        <time>2020-09-26T08:11:26.521Z</time>
      </trkpt>
      <trkpt lat="47.427788" lon="11.724130">
        <ele>928.927431</ele>
        <time>2020-09-26T08:11:36.464Z</time>
      </trkpt>
      <trkpt lat="47.427858" lon="11.724042">
        <ele>928.867646</ele>
        <time>2020-09-26T08:11:46.470Z</time>
      </trkpt>
      <trkpt lat="47.427852" lon="11.723900">
        <ele>928.805024</ele>
        <time>2020-09-26T08:11:56.524Z</time>
      </trkpt>
      <trkpt lat="47.427837" lon="11.723760">
        <ele>928.742636</ele>
        <time>2020-09-26T08:12:07.466Z</time>
      </trkpt>
      <trkpt lat="47.427793" lon="11.723592">
        <ele>928.663344</ele>
        <time>2020-09-26T08:12:14.479Z</time>
      </trkpt>
      <trkpt lat="47.427825" lon="11.723467">
        <ele>928.604518</ele>
        <time>2020-09-26T08:12:23.465Z</time>
      </trkpt>
      <trkpt lat="47.427867" lon="11.723342">
        <ele>928.543088</ele>
        <time>2020-09-26T08:12:34.452Z</time>
      </trkpt>
      <trkpt lat="47.427880" lon="11.723208">
        <ele>928.572279</ele>
        <time>2020-09-26T08:12:42.470Z</time>
      </trkpt>
      <trkpt lat="47.427875" lon="11.723072">
        <ele>928.869761</ele>
        <time>2020-09-26T08:12:49.465Z</time>
      </trkpt>
      <trkpt lat="47.427875" lon="11.722935">
        <ele>929.168989</ele>
        <time>2020-09-26T08:12:59.464Z</time>
      </trkpt>
      <trkpt lat="47.427883" lon="11.722802">
        <ele>929.460625</ele>
        <time>2020-09-26T08:13:09.463Z</time>
      </trkpt>
      <trkpt lat="47.427902" lon="11.722655">
        <ele>929.787502</ele>
        <time>2020-09-26T08:13:20.476Z</time>
      </trkpt>
      <trkpt lat="47.427922" lon="11.722517">
        <ele>930.095752</ele>
        <time>2020-09-26T08:13:30.469Z</time>
      </trkpt>
      <trkpt lat="47.427927" lon="11.722377">
        <ele>930.401957</ele>
        <time>2020-09-26T08:13:39.466Z</time>
      </trkpt>
      <trkpt lat="47.427945" lon="11.722245">
        <ele>930.696062</ele>
        <time>2020-09-26T08:13:48.467Z</time>
      </trkpt>
      <trkpt lat="47.427953" lon="11.722105">
        <ele>931.002931</ele>
        <time>2020-09-26T08:13:59.464Z</time>
      </trkpt>
      <trkpt lat="47.427980" lon="11.721978">
        <ele>931.293691</ele>
        <time>2020-09-26T08:14:09.461Z</time>
      </trkpt>
      <trkpt lat="47.427998" lon="11.721832">
        <ele>931.617827</ele>
        <time>2020-09-26T08:14:19.468Z</time>
      </trkpt>
      <trkpt lat="47.428012" lon="11.721693">
        <ele>931.924768</ele>
        <time>2020-09-26T08:14:29.462Z</time>
      </trkpt>
      <trkpt lat="47.428027" lon="11.721552">
        <ele>932.236515</ele>
        <time>2020-09-26T08:14:39.463Z</time>
      </trkpt>
      <trkpt lat="47.428058" lon="11.721427">
        <ele>932.527299</ele>
        <time>2020-09-26T08:14:48.452Z</time>
      </trkpt>
      <trkpt lat="47.428118" lon="11.721315">
        <ele>932.839331</ele>
        <time>2020-09-26T08:14:56.524Z</time>
      </trkpt>
      <trkpt lat="47.428173" lon="11.721210">
        <ele>933.129373</ele>
        <time>2020-09-26T08:15:04.482Z</time>
      </trkpt>
      <trkpt lat="47.428225" lon="11.721082">
        <ele>933.455476</ele>
        <time>2020-09-26T08:15:14.481Z</time>
      </trkpt>
      <trkpt lat="47.428285" lon="11.720972">
        <ele>933.764095</ele>
        <time>2020-09-26T08:15:23.465Z</time>
      </trkpt>
      <trkpt lat="47.428340" lon="11.720865">
        <ele>934.057602</ele>
        <time>2020-09-26T08:15:32.510Z</time>
      </trkpt>
      <trkpt lat="47.428415" lon="11.720772">
        <ele>934.318518</ele>
        <time>2020-09-26T08:15:43.465Z</time>
      </trkpt>
      <trkpt lat="47.428475" lon="11.720662">
        <ele>934.378096</ele>
        <time>2020-09-26T08:15:52.464Z</time>
      </trkpt>
      <trkpt lat="47.428532" lon="11.720557">
        <ele>934.434859</ele>
        <time>2020-09-26T08:16:02.509Z</time>
      </trkpt>
      <trkpt lat="47.428583" lon="11.720430">
        <ele>934.497131</ele>
        <time>2020-09-26T08:16:12.462Z</time>
      </trkpt>
      <trkpt lat="47.428633" lon="11.720308">
        <ele>934.557274</ele>
        <time>2020-09-26T08:16:24.464Z</time>
      </trkpt>
      <trkpt lat="47.428683" lon="11.720188">
        <ele>934.616697</ele>
        <time>2020-09-26T08:16:35.471Z</time>
      </trkpt>
      <trkpt lat="47.428752" lon="11.720093">
        <ele>934.675466</ele>
        <time>2020-09-26T08:16:45.462Z</time>
      </trkpt>
      <trkpt lat="47.428828" lon="11.720020">
        <ele>934.731956</ele>
        <time>2020-09-26T08:16:53.464Z</time>
      </trkpt>
      <trkpt lat="47.428923" lon="11.719972">
        <ele>934.794528</ele>
        <time>2020-09-26T08:17:04.462Z</time>
      </trkpt>
      <trkpt lat="47.428995" lon="11.719882">
        <ele>934.853296</ele>
        <time>2020-09-26T08:17:15.460Z</time>
      </trkpt>
      <trkpt lat="47.429067" lon="11.719800">
        <ele>934.909945</ele>
        <time>2020-09-26T08:17:35.464Z</time>
      </trkpt>
      <trkpt lat="47.429140" lon="11.719702">
        <ele>934.971405</ele>
        <time>2020-09-26T08:17:44.469Z</time>
      </trkpt>
      <trkpt lat="47.429193" lon="11.719585">
        <ele>935.030774</ele>
        <time>2020-09-26T08:17:54.469Z</time>
      </trkpt>
      <trkpt lat="47.429282" lon="11.719513">
        <ele>935.094008</ele>
        <time>2020-09-26T08:18:03.461Z</time>
      </trkpt>
      <trkpt lat="47.429357" lon="11.719418">
        <ele>935.155566</ele>
        <time>2020-09-26T08:18:13.462Z</time>
      </trkpt>
      <trkpt lat="47.429412" lon="11.719300">
        <ele>935.215984</ele>
        <time>2020-09-26T08:18:23.462Z</time>
      </trkpt>
      <trkpt lat="47.429468" lon="11.719190">
        <ele>935.274029</ele>
        <time>2020-09-26T08:18:34.461Z</time>
      </trkpt>
      <trkpt lat="47.429520" lon="11.719065">
        <ele>935.335901</ele>
        <time>2020-09-26T08:18:45.472Z</time>
      </trkpt>
      <trkpt lat="47.429590" lon="11.718975">
        <ele>935.393722</ele>
        <time>2020-09-26T08:18:54.463Z</time>
      </trkpt>
      <trkpt lat="47.429663" lon="11.718875">
        <ele>935.283379</ele>
        <time>2020-09-26T08:19:05.462Z</time>
      </trkpt>
      <trkpt lat="47.429750" lon="11.718820">
        <ele>934.996720</ele>
        <time>2020-09-26T08:19:13.460Z</time>
      </trkpt>
      <trkpt lat="47.429828" lon="11.718743">
        <ele>934.712569</ele>
        <time>2020-09-26T08:19:22.467Z</time>
      </trkpt>
      <trkpt lat="47.429915" lon="11.718663">
        <ele>934.402168</ele>
        <time>2020-09-26T08:19:31.467Z</time>
      </trkpt>
      <trkpt lat="47.430000" lon="11.718607">
        <ele>934.120243</ele>
        <time>2020-09-26T08:19:41.464Z</time>
      </trkpt>
      <trkpt lat="47.430088" lon="11.718547">
        <ele>933.826654</ele>
        <time>2020-09-26T08:19:52.465Z</time>
      </trkpt>
      <trkpt lat="47.430173" lon="11.718502">
        <ele>933.553129</ele>
        <time>2020-09-26T08:20:00.461Z</time>
      </trkpt>
      <trkpt lat="47.430252" lon="11.718432">
        <ele>933.274095</ele>
        <time>2020-09-26T08:20:10.462Z</time>
      </trkpt>
      <trkpt lat="47.430323" lon="11.718338">
        <ele>932.985343</ele>
        <time>2020-09-26T08:20:21.454Z</time>
      </trkpt>
      <trkpt lat="47.430403" lon="11.718258">
        <ele>932.692735</ele>
        <time>2020-09-26T08:20:33.460Z</time>
      </trkpt>
      <trkpt lat="47.430487" lon="11.718180">
        <ele>932.392214</ele>
        <time>2020-09-26T08:20:44.487Z</time>
      </trkpt>
      <trkpt lat="47.430557" lon="11.718087">
        <ele>932.107085</ele>
        <time>2020-09-26T08:20:55.461Z</time>
      </trkpt>
      <trkpt lat="47.430628" lon="11.717982">
        <ele>931.802830</ele>
        <time>2020-09-26T08:21:04.463Z</time>
      </trkpt>
      <trkpt lat="47.430707" lon="11.717892">
        <ele>931.500671</ele>
        <time>2020-09-26T08:21:14.481Z</time>
      </trkpt>
      <trkpt lat="47.430780" lon="11.717793">
        <ele>931.200548</ele>
        <time>2020-09-26T08:21:25.464Z</time>
      </trkpt>
      <trkpt lat="47.430842" lon="11.717690">
        <ele>930.917992</ele>
        <time>2020-09-26T08:21:36.466Z</time>
      </trkpt>
      <trkpt lat="47.430897" lon="11.717570">
        <ele>930.620933</ele>
        <time>2020-09-26T08:21:49.467Z</time>
      </trkpt>
      <trkpt lat="47.430952" lon="11.717460">
        <ele>930.340606</ele>
        <time>2020-09-26T08:21:59.465Z</time>
      </trkpt>
      <trkpt lat="47.431007" lon="11.717338">
        <ele>930.040146</ele>
        <time>2020-09-26T08:22:09.455Z</time>
      </trkpt>
      <trkpt lat="47.431072" lon="11.717245">
        <ele>930.051110</ele>
        <time>2020-09-26T08:22:20.483Z</time>
      </trkpt>
      <trkpt lat="47.431117" lon="11.717123">
        <ele>930.150560</ele>
        <time>2020-09-26T08:22:28.465Z</time>
      </trkpt>
      <trkpt lat="47.431178" lon="11.717008">
        <ele>930.255148</ele>
        <time>2020-09-26T08:22:38.482Z</time>
      </trkpt>
      <trkpt lat="47.431253" lon="11.716927">
        <ele>930.353416</ele>
        <time>2020-09-26T08:23:07.463Z</time>
      </trkpt>
      <trkpt lat="47.431277" lon="11.716782">
        <ele>930.460251</ele>
        <time>2020-09-26T08:23:49.434Z</time>
      </trkpt>
      <trkpt lat="47.431320" lon="11.716663">
        <ele>930.556806</ele>
        <time>2020-09-26T08:23:59.450Z</time>
      </trkpt>
      <trkpt lat="47.431347" lon="11.716522">
        <ele>930.661682</ele>
        <time>2020-09-26T08:24:08.463Z</time>
      </trkpt>
      <trkpt lat="47.431378" lon="11.716380">
        <ele>930.768470</ele>
        <time>2020-09-26T08:24:16.434Z</time>
      </trkpt>
      <trkpt lat="47.431392" lon="11.716230">
        <ele>930.876839</ele>
        <time>2020-09-26T08:24:27.460Z</time>
      </trkpt>
      <trkpt lat="47.431403" lon="11.716098">
        <ele>930.972023</ele>
        <time>2020-09-26T08:24:33.465Z</time>
      </trkpt>
      <trkpt lat="47.431400" lon="11.715952">
        <ele>931.076560</ele>
        <time>2020-09-26T08:24:40.465Z</time>
      </trkpt>
      <trkpt lat="47.431425" lon="11.715823">
        <ele>931.172597</ele>
        <time>2020-09-26T08:24:49.469Z</time>
      </trkpt>
      <trkpt lat="47.431435" lon="11.715683">
        <ele>931.273349</ele>
        <time>2020-09-26T08:25:00.467Z</time>
      </trkpt>
      <trkpt lat="47.431428" lon="11.715545">
        <ele>931.372390</ele>
        <time>2020-09-26T08:25:08.486Z</time>
      </trkpt>
      <trkpt lat="47.431430" lon="11.715403">
        <ele>931.474039</ele>
        <time>2020-09-26T08:25:16.469Z</time>
      </trkpt>
      <trkpt lat="47.431445" lon="11.715262">
        <ele>931.576190</ele>
        <time>2020-09-26T08:25:24.462Z</time>
      </trkpt>
      <trkpt lat="47.431433" lon="11.715122">
        <ele>931.677187</ele>
        <time>2020-09-26T08:25:32.516Z</time>
      </trkpt>
      <trkpt lat="47.431425" lon="11.714983">
        <ele>931.777026</ele>
        <time>2020-09-26T08:25:40.458Z</time>
      </trkpt>
      <trkpt lat="47.431442" lon="11.714850">
        <ele>931.873895</ele>
        <time>2020-09-26T08:25:49.463Z</time>
      </trkpt>
      <trkpt lat="47.431467" lon="11.714712">
        <ele>932.094251</ele>
        <time>2020-09-26T08:25:58.462Z</time>
      </trkpt>
      <trkpt lat="47.431480" lon="11.714578">
        <ele>932.310446</ele>
        <time>2020-09-26T08:26:07.462Z</time>
      </trkpt>
      <trkpt lat="47.431482" lon="11.714427">
        <ele>932.551649</ele>
        <time>2020-09-26T08:26:15.470Z</time>
      </trkpt>
      <trkpt lat="47.431503" lon="11.714297">
        <ele>932.765104</ele>
        <time>2020-09-26T08:26:24.468Z</time>
      </trkpt>
      <trkpt lat="47.431508" lon="11.714155">
        <ele>932.992193</ele>
        <time>2020-09-26T08:26:32.517Z</time>
      </trkpt>
      <trkpt lat="47.431527" lon="11.714022">
        <ele>933.209287</ele>
        <time>2020-09-26T08:26:39.465Z</time>
      </trkpt>
      <trkpt lat="47.431562" lon="11.713897">
        <ele>933.425344</ele>
        <time>2020-09-26T08:26:49.462Z</time>
      </trkpt>
      <trkpt lat="47.431587" lon="11.713762">
        <ele>933.648880</ele>
        <time>2020-09-26T08:26:58.459Z</time>
      </trkpt>
      <trkpt lat="47.431628" lon="11.713635">
        <ele>933.873619</ele>
        <time>2020-09-26T08:27:07.457Z</time>
      </trkpt>
      <trkpt lat="47.431688" lon="11.713522">
        <ele>934.103039</ele>
        <time>2020-09-26T08:27:17.463Z</time>
      </trkpt>
      <trkpt lat="47.431737" lon="11.713395">
        <ele>934.336536</ele>
        <time>2020-09-26T08:27:26.519Z</time>
      </trkpt>
      <trkpt lat="47.431780" lon="11.713278">
        <ele>934.549187</ele>
        <time>2020-09-26T08:27:34.454Z</time>
      </trkpt>
      <trkpt lat="47.431825" lon="11.713148">
        <ele>934.782407</ele>
        <time>2020-09-26T08:27:46.458Z</time>
      </trkpt>
      <trkpt lat="47.431890" lon="11.713037">
        <ele>935.016873</ele>
        <time>2020-09-26T08:27:53.461Z</time>
      </trkpt>
      <trkpt lat="47.431952" lon="11.712918">
        <ele>935.256756</ele>
        <time>2020-09-26T08:28:01.467Z</time>
      </trkpt>
      <trkpt lat="47.431988" lon="11.712792">
        <ele>935.475196</ele>
        <time>2020-09-26T08:28:11.468Z</time>
      </trkpt>
      <trkpt lat="47.432037" lon="11.712668">
        <ele>935.704542</ele>
        <time>2020-09-26T08:28:20.486Z</time>
      </trkpt>
      <trkpt lat="47.432083" lon="11.712553">
        <ele>935.917908</ele>
        <time>2020-09-26T08:28:29.464Z</time>
      </trkpt>
      <trkpt lat="47.432135" lon="11.712443">
        <ele>936.122737</ele>
        <time>2020-09-26T08:28:38.485Z</time>
      </trkpt>
      <trkpt lat="47.432175" lon="11.712318">
        <ele>935.971623</ele>
        <time>2020-09-26T08:28:48.494Z</time>
      </trkpt>
      <trkpt lat="47.432213" lon="11.712192">
        <ele>935.820865</ele>
        <time>2020-09-26T08:28:57.455Z</time>
      </trkpt>
      <trkpt lat="47.432280" lon="11.712080">
        <ele>935.657478</ele>
        <time>2020-09-26T08:29:06.462Z</time>
      </trkpt>
      <trkpt lat="47.432338" lon="11.711955">
        <ele>935.491831</ele>
        <time>2020-09-26T08:29:15.466Z</time>
      </trkpt>
      <trkpt lat="47.432393" lon="11.711842">
        <ele>935.339702</ele>
        <time>2020-09-26T08:29:23.463Z</time>
      </trkpt>
      <trkpt lat="47.432445" lon="11.711720">
        <ele>935.182122</ele>
        <time>2020-09-26T08:29:33.465Z</time>
      </trkpt>
      <trkpt lat="47.432482" lon="11.711592">
        <ele>935.030008</ele>
        <time>2020-09-26T08:29:41.462Z</time>
      </trkpt>
      <trkpt lat="47.432553" lon="11.711500">
        <ele>934.877484</ele>
        <time>2020-09-26T08:29:50.483Z</time>
      </trkpt>
      <trkpt lat="47.432610" lon="11.711397">
        <ele>934.732059</ele>
        <time>2020-09-26T08:29:58.464Z</time>
      </trkpt>
      <trkpt lat="47.432660" lon="11.711282">
        <ele>934.582668</ele>
        <time>2020-09-26T08:30:07.462Z</time>
      </trkpt>
      <trkpt lat="47.432710" lon="11.711163">
        <ele>934.429582</ele>
        <time>2020-09-26T08:30:17.461Z</time>
      </trkpt>
      <trkpt lat="47.432748" lon="11.711027">
        <ele>934.268783</ele>
        <time>2020-09-26T08:30:26.515Z</time>
      </trkpt>
      <trkpt lat="47.432775" lon="11.710898">
        <ele>934.121219</ele>
        <time>2020-09-26T08:30:34.464Z</time>
      </trkpt>
      <trkpt lat="47.432810" lon="11.710775">
        <ele>933.975397</ele>
        <time>2020-09-26T08:30:43.465Z</time>
      </trkpt>
      <trkpt lat="47.432905" lon="11.710745">
        <ele>933.818465</ele>
        <time>2020-09-26T08:31:01.462Z</time>
      </trkpt>
      <trkpt lat="47.432935" lon="11.710612">
        <ele>933.665257</ele>
        <time>2020-09-26T08:31:10.461Z</time>
      </trkpt>
      <trkpt lat="47.432963" lon="11.710482">
        <ele>933.516167</ele>
        <time>2020-09-26T08:31:18.477Z</time>
      </trkpt>
      <trkpt lat="47.433000" lon="11.710355">
        <ele>933.365058</ele>
        <time>2020-09-26T08:31:27.451Z</time>
      </trkpt>
      <trkpt lat="47.433028" lon="11.710227">
        <ele>933.219270</ele>
        <time>2020-09-26T08:31:36.459Z</time>
      </trkpt>
      <trkpt lat="47.433065" lon="11.710103">
        <ele>933.133769</ele>
        <time>2020-09-26T08:31:46.464Z</time>
      </trkpt>
      <trkpt lat="47.433080" lon="11.709965">
        <ele>933.045591</ele>
        <time>2020-09-26T08:31:54.471Z</time>
      </trkpt>
      <trkpt lat="47.433110" lon="11.709832">
        <ele>932.957142</ele>
        <time>2020-09-26T08:32:03.461Z</time>
      </trkpt>
      <trkpt lat="47.433142" lon="11.709705">
        <ele>932.871643</ele>
        <time>2020-09-26T08:32:11.462Z</time>
      </trkpt>
      <trkpt lat="47.433190" lon="11.709587">
        <ele>932.784776</ele>
        <time>2020-09-26T08:32:19.446Z</time>
      </trkpt>
      <trkpt lat="47.433227" lon="11.709465">
        <ele>932.700428</ele>
        <time>2020-09-26T08:32:29.476Z</time>
      </trkpt>
      <trkpt lat="47.433228" lon="11.709332">
        <ele>932.616517</ele>
        <time>2020-09-26T08:32:36.459Z</time>
      </trkpt>
      <trkpt lat="47.433265" lon="11.709208">
        <ele>932.531015</ele>
        <time>2020-09-26T08:32:46.480Z</time>
      </trkpt>
      <trkpt lat="47.433305" lon="11.709080">
        <ele>932.442063</ele>
        <time>2020-09-26T08:32:54.464Z</time>
      </trkpt>
      <trkpt lat="47.433337" lon="11.708955">
        <ele>932.357745</ele>
        <time>2020-09-26T08:33:01.460Z</time>
      </trkpt>
      <trkpt lat="47.433353" lon="11.708817">
        <ele>932.269415</ele>
        <time>2020-09-26T08:33:10.466Z</time>
      </trkpt>
      <trkpt lat="47.433392" lon="11.708688">
        <ele>932.180274</ele>
        <time>2020-09-26T08:33:20.485Z</time>
      </trkpt>
      <trkpt lat="47.433437" lon="11.708565">
        <ele>932.092055</ele>
        <time>2020-09-26T08:33:30.479Z</time>
      </trkpt>
      <trkpt lat="47.433470" lon="11.708432">
        <ele>932.002682</ele>
        <time>2020-09-26T08:33:38.484Z</time>
      </trkpt>
      <trkpt lat="47.433505" lon="11.708302">
        <ele>931.914412</ele>
        <time>2020-09-26T08:33:46.465Z</time>
      </trkpt>
      <trkpt lat="47.433518" lon="11.708158">
        <ele>931.822761</ele>
        <time>2020-09-26T08:33:55.460Z</time>
      </trkpt>
      <trkpt lat="47.433555" lon="11.708035">
        <ele>931.737837</ele>
        <time>2020-09-26T08:34:04.455Z</time>
      </trkpt>
      <trkpt lat="47.433585" lon="11.707892">
        <ele>931.643383</ele>
        <time>2020-09-26T08:34:15.441Z</time>
      </trkpt>
      <trkpt lat="47.433632" lon="11.707772">
        <ele>931.555904</ele>
        <time>2020-09-26T08:34:24.460Z</time>
      </trkpt>
      <trkpt lat="47.433665" lon="11.707638">
        <ele>931.547161</ele>
        <time>2020-09-26T08:34:32.511Z</time>
      </trkpt>
      <trkpt lat="47.433688" lon="11.707495">
        <ele>931.551572</ele>
        <time>2020-09-26T08:34:41.460Z</time>
      </trkpt>
      <trkpt lat="47.433738" lon="11.707365">
        <ele>931.556060</ele>
        <time>2020-09-26T08:34:50.481Z</time>
      </trkpt>
      <trkpt lat="47.433807" lon="11.707270">
        <ele>931.560243</ele>
        <time>2020-09-26T08:34:58.457Z</time>
      </trkpt>
      <trkpt lat="47.433848" lon="11.707142">
        <ele>931.564493</ele>
        <time>2020-09-26T08:35:09.467Z</time>
      </trkpt>
      <trkpt lat="47.433895" lon="11.707012">
        <ele>931.568917</ele>
        <time>2020-09-26T08:35:18.460Z</time>
      </trkpt>
      <trkpt lat="47.433947" lon="11.706898">
        <ele>931.573043</ele>
        <time>2020-09-26T08:35:26.520Z</time>
      </trkpt>
      <trkpt lat="47.433960" lon="11.706750">
        <ele>931.577522</ele>
        <time>2020-09-26T08:35:35.465Z</time>
      </trkpt>
      <trkpt lat="47.433982" lon="11.706607">
        <ele>931.581923</ele>
        <time>2020-09-26T08:35:45.474Z</time>
      </trkpt>
      <trkpt lat="47.434023" lon="11.706487">
        <ele>931.585958</ele>
        <time>2020-09-26T08:35:53.463Z</time>
      </trkpt>
      <trkpt lat="47.434070" lon="11.706367">
        <ele>931.590119</ele>
        <time>2020-09-26T08:36:01.462Z</time>
      </trkpt>
      <trkpt lat="47.434120" lon="11.706250">
        <ele>931.594273</ele>
        <time>2020-09-26T08:36:10.484Z</time>
      </trkpt>
      <trkpt lat="47.434183" lon="11.706137">
        <ele>931.598667</ele>
        <time>2020-09-26T08:36:19.463Z</time>
      </trkpt>
      <trkpt lat="47.434250" lon="11.706043">
        <ele>931.602765</ele>
        <time>2020-09-26T08:36:28.467Z</time>
      </trkpt>
      <trkpt lat="47.434327" lon="11.705953">
        <ele>931.607120</ele>
        <time>2020-09-26T08:36:36.465Z</time>
      </trkpt>
      <trkpt lat="47.434403" lon="11.705865">
        <ele>931.611403</ele>
        <time>2020-09-26T08:36:45.463Z</time>
      </trkpt>
      <trkpt lat="47.434488" lon="11.705792">
        <ele>931.615764</ele>
        <time>2020-09-26T08:36:53.467Z</time>
      </trkpt>
      <trkpt lat="47.434565" lon="11.705722">
        <ele>931.619775</ele>
        <time>2020-09-26T08:37:01.463Z</time>
      </trkpt>
      <trkpt lat="47.434637" lon="11.705633">
        <ele>931.619668</ele>
        <time>2020-09-26T08:37:10.487Z</time>
      </trkpt>
      <trkpt lat="47.434730" lon="11.705568">
        <ele>931.595060</ele>
        <time>2020-09-26T08:37:19.464Z</time>
      </trkpt>
      <trkpt lat="47.434822" lon="11.705537">
        <ele>931.572487</ele>
        <time>2020-09-26T08:37:26.521Z</time>
      </trkpt>
      <trkpt lat="47.434920" lon="11.705518">
        <ele>931.548843</ele>
        <time>2020-09-26T08:37:34.465Z</time>
      </trkpt>
      <trkpt lat="47.435020" lon="11.705490">
        <ele>931.524496</ele>
        <time>2020-09-26T08:37:44.485Z</time>
      </trkpt>
      <trkpt lat="47.435115" lon="11.705447">
        <ele>931.500729</ele>
        <time>2020-09-26T08:37:53.461Z</time>
      </trkpt>
      <trkpt lat="47.435207" lon="11.705422">
        <ele>931.478353</ele>
        <time>2020-09-26T08:38:03.458Z</time>
      </trkpt>
      <trkpt lat="47.435297" lon="11.705392">
        <ele>931.456283</ele>
        <time>2020-09-26T08:38:11.473Z</time>
      </trkpt>
      <trkpt lat="47.435388" lon="11.705352">
        <ele>931.433572</ele>
        <time>2020-09-26T08:38:20.486Z</time>
      </trkpt>
      <trkpt lat="47.435480" lon="11.705322">
        <ele>931.411035</ele>
        <time>2020-09-26T08:38:29.465Z</time>
      </trkpt>
      <trkpt lat="47.435565" lon="11.705277">
        <ele>931.389438</ele>
        <time>2020-09-26T08:38:36.460Z</time>
      </trkpt>
      <trkpt lat="47.435663" lon="11.705232">
        <ele>931.364890</ele>
        <time>2020-09-26T08:38:45.471Z</time>
      </trkpt>
      <trkpt lat="47.435750" lon="11.705185">
        <ele>931.342732</ele>
        <time>2020-09-26T08:38:55.463Z</time>
      </trkpt>
      <trkpt lat="47.435840" lon="11.705165">
        <ele>931.320960</ele>
        <time>2020-09-26T08:39:05.465Z</time>
      </trkpt>
      <trkpt lat="47.435930" lon="11.705158">
        <ele>931.299401</ele>
        <time>2020-09-26T08:39:14.487Z</time>
      </trkpt>
      <trkpt lat="47.436022" lon="11.705122">
        <ele>931.276635</ele>
        <time>2020-09-26T08:39:23.471Z</time>
      </trkpt>
      <trkpt lat="47.436112" lon="11.705097">
        <ele>931.254729</ele>
        <time>2020-09-26T08:39:32.510Z</time>
      </trkpt>
      <trkpt lat="47.436207" lon="11.705088">
        <ele>931.231957</ele>
        <time>2020-09-26T08:39:40.472Z</time>
      </trkpt>
      <trkpt lat="47.436297" lon="11.705077">
        <ele>931.210354</ele>
        <time>2020-09-26T08:39:47.464Z</time>
      </trkpt>
      <trkpt lat="47.436393" lon="11.705050">
        <ele>931.192353</ele>
        <time>2020-09-26T08:39:56.537Z</time>
      </trkpt>
      <trkpt lat="47.436483" lon="11.705012">
        <ele>931.189928</ele>
        <time>2020-09-26T08:40:05.468Z</time>
      </trkpt>
      <trkpt lat="47.436577" lon="11.704972">
        <ele>931.187394</ele>
        <time>2020-09-26T08:40:14.488Z</time>
      </trkpt>
      <trkpt lat="47.436670" lon="11.704932">
        <ele>931.184885</ele>
        <time>2020-09-26T08:40:24.462Z</time>
      </trkpt>
      <trkpt lat="47.436755" lon="11.704880">
        <ele>931.182503</ele>
        <time>2020-09-26T08:40:32.514Z</time>
      </trkpt>
      <trkpt lat="47.436850" lon="11.704827">
        <ele>931.179873</ele>
        <time>2020-09-26T08:40:41.473Z</time>
      </trkpt>
      <trkpt lat="47.436930" lon="11.704737">
        <ele>931.177269</ele>
        <time>2020-09-26T08:40:51.461Z</time>
      </trkpt>
      <trkpt lat="47.437008" lon="11.704665">
        <ele>931.174887</ele>
        <time>2020-09-26T08:40:59.463Z</time>
      </trkpt>
      <trkpt lat="47.437090" lon="11.704598">
        <ele>931.172460</ele>
        <time>2020-09-26T08:41:06.464Z</time>
      </trkpt>
      <trkpt lat="47.437173" lon="11.704532">
        <ele>931.170019</ele>
        <time>2020-09-26T08:41:15.462Z</time>
      </trkpt>
      <trkpt lat="47.437255" lon="11.704450">
        <ele>931.167454</ele>
        <time>2020-09-26T08:41:23.461Z</time>
      </trkpt>
      <trkpt lat="47.437343" lon="11.704393">
        <ele>931.164966</ele>
        <time>2020-09-26T08:41:33.459Z</time>
      </trkpt>
      <trkpt lat="47.437428" lon="11.704337">
        <ele>931.162555</ele>
        <time>2020-09-26T08:41:41.474Z</time>
      </trkpt>
      <trkpt lat="47.437520" lon="11.704292">
        <ele>931.160045</ele>
        <time>2020-09-26T08:41:48.459Z</time>
      </trkpt>
      <trkpt lat="47.437603" lon="11.704237">
        <ele>931.157689</ele>
        <time>2020-09-26T08:41:59.461Z</time>
      </trkpt>
      <trkpt lat="47.437687" lon="11.704187">
        <ele>931.155344</ele>
        <time>2020-09-26T08:42:08.487Z</time>
      </trkpt>
      <trkpt lat="47.437777" lon="11.704145">
        <ele>931.152899</ele>
        <time>2020-09-26T08:42:14.488Z</time>
      </trkpt>
      <trkpt lat="47.437867" lon="11.704120">
        <ele>931.150527</ele>
        <time>2020-09-26T08:42:23.432Z</time>
      </trkpt>
      <trkpt lat="47.437962" lon="11.704072">
        <ele>931.147926</ele>
        <time>2020-09-26T08:42:32.486Z</time>
      </trkpt>
      <trkpt lat="47.438057" lon="11.704023">
        <ele>931.161882</ele>
        <time>2020-09-26T08:42:40.426Z</time>
      </trkpt>
      <trkpt lat="47.438147" lon="11.703983">
        <ele>931.196264</ele>
        <time>2020-09-26T08:42:48.414Z</time>
      </trkpt>
      <trkpt lat="47.438238" lon="11.703972">
        <ele>931.229667</ele>
        <time>2020-09-26T08:42:58.417Z</time>
      </trkpt>
      <trkpt lat="47.438327" lon="11.703935">
        <ele>931.263490</ele>
        <time>2020-09-26T08:43:06.462Z</time>
      </trkpt>
      <trkpt lat="47.438417" lon="11.703907">
        <ele>931.297138</ele>
        <time>2020-09-26T08:43:12.463Z</time>
      </trkpt>
      <trkpt lat="47.438515" lon="11.703893">
        <ele>931.333158</ele>
        <time>2020-09-26T08:43:18.465Z</time>
      </trkpt>
      <trkpt lat="47.438605" lon="11.703860">
        <ele>931.367082</ele>
        <time>2020-09-26T08:43:26.512Z</time>
      </trkpt>
      <trkpt lat="47.438695" lon="11.703880">
        <ele>931.400378</ele>
        <time>2020-09-26T08:43:34.460Z</time>
      </trkpt>
      <trkpt lat="47.438793" lon="11.703905">
        <ele>931.436761</ele>
        <time>2020-09-26T08:43:44.493Z</time>
      </trkpt>
      <trkpt lat="47.438887" lon="11.703913">
        <ele>931.471207</ele>
        <time>2020-09-26T08:43:52.484Z</time>
      </trkpt>
      <trkpt lat="47.438982" lon="11.703900">
        <ele>931.506112</ele>
        <time>2020-09-26T08:44:01.460Z</time>
      </trkpt>
      <trkpt lat="47.439080" lon="11.703915">
        <ele>931.542156</ele>
        <time>2020-09-26T08:44:10.462Z</time>
      </trkpt>
      <trkpt lat="47.439180" lon="11.703925">
        <ele>931.578825</ele>
        <time>2020-09-26T08:44:20.494Z</time>
      </trkpt>
      <trkpt lat="47.439280" lon="11.703945">
        <ele>931.615743</ele>
        <time>2020-09-26T08:44:28.462Z</time>
      </trkpt>
      <trkpt lat="47.439372" lon="11.703938">
        <ele>931.649445</ele>
        <time>2020-09-26T08:44:36.456Z</time>
      </trkpt>
      <trkpt lat="47.439468" lon="11.703947">
        <ele>931.684637</ele>
        <time>2020-09-26T08:44:44.498Z</time>
      </trkpt>
      <trkpt lat="47.439567" lon="11.703972">
        <ele>931.721381</ele>
        <time>2020-09-26T08:44:54.464Z</time>
      </trkpt>
      <trkpt lat="47.439657" lon="11.703985">
        <ele>931.754464</ele>
        <time>2020-09-26T08:45:02.507Z</time>
      </trkpt>
      <trkpt lat="47.439753" lon="11.703995">
        <ele>931.789672</ele>
        <time>2020-09-26T08:45:12.463Z</time>
      </trkpt>
      <trkpt lat="47.439845" lon="11.703965">
        <ele>931.654657</ele>
        <time>2020-09-26T08:45:34.467Z</time>
      </trkpt>
      <trkpt lat="47.439935" lon="11.703955">
        <ele>931.403521</ele>
        <time>2020-09-26T08:45:43.464Z</time>
      </trkpt>
      <trkpt lat="47.440027" lon="11.703950">
        <ele>931.147352</ele>
        <time>2020-09-26T08:45:59.467Z</time>
      </trkpt>
      <trkpt lat="47.440122" lon="11.703938">
        <ele>930.882046</ele>
        <time>2020-09-26T08:46:11.463Z</time>
      </trkpt>
      <trkpt lat="47.440213" lon="11.703928">
        <ele>930.628134</ele>
        <time>2020-09-26T08:46:20.495Z</time>
      </trkpt>
      <trkpt lat="47.440300" lon="11.703885">
        <ele>930.372883</ele>
        <time>2020-09-26T08:46:29.458Z</time>
      </trkpt>
      <trkpt lat="47.440397" lon="11.703870">
        <ele>930.101502</ele>
        <time>2020-09-26T08:46:38.494Z</time>
      </trkpt>
      <trkpt lat="47.440487" lon="11.703848">
        <ele>929.847672</ele>
        <time>2020-09-26T08:46:48.461Z</time>
      </trkpt>
      <trkpt lat="47.440578" lon="11.703828">
        <ele>929.591676</ele>
        <time>2020-09-26T08:46:58.465Z</time>
      </trkpt>
      <trkpt lat="47.440672" lon="11.703808">
        <ele>929.327421</ele>
        <time>2020-09-26T08:47:08.494Z</time>
      </trkpt>
      <trkpt lat="47.440725" lon="11.703690">
        <ele>929.060838</ele>
        <time>2020-09-26T08:47:21.460Z</time>
      </trkpt>
      <trkpt lat="47.440767" lon="11.703562">
        <ele>928.793091</ele>
        <time>2020-09-26T08:47:31.462Z</time>
      </trkpt>
      <trkpt lat="47.440843" lon="11.703492">
        <ele>928.543939</ele>
        <time>2020-09-26T08:47:40.463Z</time>
      </trkpt>
      <trkpt lat="47.440938" lon="11.703458">
        <ele>928.271961</ele>
        <time>2020-09-26T08:47:48.464Z</time>
      </trkpt>
      <trkpt lat="47.441030" lon="11.703437">
        <ele>928.012933</ele>
        <time>2020-09-26T08:47:58.462Z</time>
      </trkpt>
      <trkpt lat="47.441118" lon="11.703495">
        <ele>927.744840</ele>
        <time>2020-09-26T08:48:11.461Z</time>
      </trkpt>
      <trkpt lat="47.441210" lon="11.703550">
        <ele>927.468710</ele>
        <time>2020-09-26T08:48:20.499Z</time>
      </trkpt>
      <trkpt lat="47.441308" lon="11.703565">
        <ele>927.194561</ele>
        <time>2020-09-26T08:48:33.457Z</time>
      </trkpt>
      <trkpt lat="47.441410" lon="11.703582">
        <ele>926.908942</ele>
        <time>2020-09-26T08:48:38.497Z</time>
      </trkpt>
      <trkpt lat="47.441528" lon="11.703655">
        <ele>926.809902</ele>
        <time>2020-09-26T08:49:59.469Z</time>
      </trkpt>
      <trkpt lat="47.441610" lon="11.703740">
        <ele>926.821533</ele>
        <time>2020-09-26T08:50:10.461Z</time>
      </trkpt>
      <trkpt lat="47.441680" lon="11.703828">
        <ele>926.832205</ele>
        <time>2020-09-26T08:50:20.475Z</time>
      </trkpt>
      <trkpt lat="47.441765" lon="11.703767">
        <ele>926.843179</ele>
        <time>2020-09-26T08:50:40.463Z</time>
      </trkpt>
      <trkpt lat="47.441783" lon="11.703632">
        <ele>926.853988</ele>
        <time>2020-09-26T08:50:51.463Z</time>
      </trkpt>
      <trkpt lat="47.441793" lon="11.703497">
        <ele>926.864656</ele>
        <time>2020-09-26T08:51:01.464Z</time>
      </trkpt>
      <trkpt lat="47.441832" lon="11.703358">
        <ele>926.876477</ele>
        <time>2020-09-26T08:51:10.478Z</time>
      </trkpt>
      <trkpt lat="47.441868" lon="11.703230">
        <ele>926.887366</ele>
        <time>2020-09-26T08:51:19.464Z</time>
      </trkpt>
      <trkpt lat="47.441915" lon="11.703107">
        <ele>926.898464</ele>
        <time>2020-09-26T08:51:29.463Z</time>
      </trkpt>
      <trkpt lat="47.442007" lon="11.703067">
        <ele>926.909602</ele>
        <time>2020-09-26T08:51:39.463Z</time>
      </trkpt>
      <trkpt lat="47.442097" lon="11.703012">
        <ele>926.920912</ele>
        <time>2020-09-26T08:51:49.441Z</time>
      </trkpt>
      <trkpt lat="47.442168" lon="11.702923">
        <ele>926.931723</ele>
        <time>2020-09-26T08:51:56.517Z</time>
      </trkpt>
      <trkpt lat="47.442238" lon="11.702817">
        <ele>926.943361</ele>
        <time>2020-09-26T08:52:06.479Z</time>
      </trkpt>
      <trkpt lat="47.442305" lon="11.702718">
        <ele>926.954362</ele>
        <time>2020-09-26T08:52:15.464Z</time>
      </trkpt>
      <trkpt lat="47.442390" lon="11.702652">
        <ele>926.965513</ele>
        <time>2020-09-26T08:52:25.464Z</time>
      </trkpt>
      <trkpt lat="47.442448" lon="11.702535">
        <ele>926.976908</ele>
        <time>2020-09-26T08:52:34.455Z</time>
      </trkpt>
      <trkpt lat="47.442498" lon="11.702422">
        <ele>926.987515</ele>
        <time>2020-09-26T08:52:42.468Z</time>
      </trkpt>
      <trkpt lat="47.442562" lon="11.702323">
        <ele>926.998273</ele>
        <time>2020-09-26T08:52:49.463Z</time>
      </trkpt>
      <trkpt lat="47.442615" lon="11.702197">
        <ele>927.028371</ele>
        <time>2020-09-26T08:53:01.466Z</time>
      </trkpt>
      <trkpt lat="47.442713" lon="11.702215">
        <ele>927.189174</ele>
        <time>2020-09-26T08:53:15.466Z</time>
      </trkpt>
      <trkpt lat="47.442763" lon="11.702338">
        <ele>927.347217</ele>
        <time>2020-09-26T08:53:23.463Z</time>
      </trkpt>
      <trkpt lat="47.442818" lon="11.702465">
        <ele>927.513297</ele>
        <time>2020-09-26T08:53:33.465Z</time>
      </trkpt>
      <trkpt lat="47.442883" lon="11.702565">
        <ele>927.666041</ele>
        <time>2020-09-26T08:53:41.486Z</time>
      </trkpt>
      <trkpt lat="47.442950" lon="11.702667">
        <ele>927.822632</ele>
        <time>2020-09-26T08:53:50.491Z</time>
      </trkpt>
      <trkpt lat="47.443003" lon="11.702775">
        <ele>927.969582</ele>
        <time>2020-09-26T08:53:58.465Z</time>
      </trkpt>
      <trkpt lat="47.443098" lon="11.702827">
        <ele>928.134533</ele>
        <time>2020-09-26T08:54:07.465Z</time>
      </trkpt>
      <trkpt lat="47.443187" lon="11.702797">
        <ele>928.283173</ele>
        <time>2020-09-26T08:54:18.466Z</time>
      </trkpt>
      <trkpt lat="47.443257" lon="11.702697">
        <ele>928.441667</ele>
        <time>2020-09-26T08:54:27.464Z</time>
      </trkpt>
      <trkpt lat="47.443298" lon="11.702567">
        <ele>928.599634</ele>
        <time>2020-09-26T08:54:38.497Z</time>
      </trkpt>
      <trkpt lat="47.443352" lon="11.702452">
        <ele>928.753813</ele>
        <time>2020-09-26T08:54:48.463Z</time>
      </trkpt>
      <trkpt lat="47.443418" lon="11.702357">
        <ele>928.903797</ele>
        <time>2020-09-26T08:54:57.455Z</time>
      </trkpt>
      <trkpt lat="47.443485" lon="11.702243">
        <ele>929.070122</ele>
        <time>2020-09-26T08:55:06.462Z</time>
      </trkpt>
      <trkpt lat="47.443547" lon="11.702147">
        <ele>929.216305</ele>
        <time>2020-09-26T08:55:13.461Z</time>
      </trkpt>
      <trkpt lat="47.443585" lon="11.702025">
        <ele>929.364224</ele>
        <time>2020-09-26T08:55:23.460Z</time>
      </trkpt>
      <trkpt lat="47.443648" lon="11.701930">
        <ele>929.510747</ele>
        <time>2020-09-26T08:55:32.497Z</time>
      </trkpt>
      <trkpt lat="47.443715" lon="11.701827">
        <ele>929.668129</ele>
        <time>2020-09-26T08:55:42.465Z</time>
      </trkpt>
      <trkpt lat="47.443775" lon="11.701717">
        <ele>929.823756</ele>
        <time>2020-09-26T08:55:52.464Z</time>
      </trkpt>
      <trkpt lat="47.443843" lon="11.701625">
        <ele>929.950739</ele>
        <time>2020-09-26T08:56:00.453Z</time>
      </trkpt>
      <trkpt lat="47.443913" lon="11.701542">
        <ele>930.004461</ele>
        <time>2020-09-26T08:56:08.493Z</time>
      </trkpt>
      <trkpt lat="47.444000" lon="11.701467">
        <ele>930.064756</ele>
        <time>2020-09-26T08:56:17.460Z</time>
      </trkpt>
      <trkpt lat="47.444075" lon="11.701392">
        <ele>930.118965</ele>
        <time>2020-09-26T08:56:25.461Z</time>
      </trkpt>
      <trkpt lat="47.444153" lon="11.701302">
        <ele>930.178202</ele>
        <time>2020-09-26T08:56:34.461Z</time>
      </trkpt>
      <trkpt lat="47.444230" lon="11.701225">
        <ele>930.233857</ele>
        <time>2020-09-26T08:56:41.465Z</time>
      </trkpt>
      <trkpt lat="47.444312" lon="11.701142">
        <ele>930.293353</ele>
        <time>2020-09-26T08:56:54.464Z</time>
      </trkpt>
      <trkpt lat="47.444405" lon="11.701077">
        <ele>930.354941</ele>
        <time>2020-09-26T08:57:03.460Z</time>
      </trkpt>
      <trkpt lat="47.444495" lon="11.701050">
        <ele>930.409924</ele>
        <time>2020-09-26T08:57:13.464Z</time>
      </trkpt>
      <trkpt lat="47.444588" lon="11.701035">
        <ele>930.465935</ele>
        <time>2020-09-26T08:57:22.462Z</time>
      </trkpt>
      <trkpt lat="47.444687" lon="11.700998">
        <ele>930.527073</ele>
        <time>2020-09-26T08:57:32.505Z</time>
      </trkpt>
      <trkpt lat="47.444788" lon="11.700977">
        <ele>930.588138</ele>
        <time>2020-09-26T08:57:42.460Z</time>
      </trkpt>
      <trkpt lat="47.444887" lon="11.701002">
        <ele>930.648270</ele>
        <time>2020-09-26T08:57:50.492Z</time>
      </trkpt>
      <trkpt lat="47.444985" lon="11.701032">
        <ele>930.708188</ele>
        <time>2020-09-26T08:57:58.461Z</time>
      </trkpt>
      <trkpt lat="47.445082" lon="11.701045">
        <ele>930.766502</ele>
        <time>2020-09-26T08:58:07.460Z</time>
      </trkpt>
      <trkpt lat="47.445180" lon="11.701033">
        <ele>930.825378</ele>
        <time>2020-09-26T08:58:34.461Z</time>
      </trkpt>
      <trkpt lat="47.445278" lon="11.701033">
        <ele>930.884052</ele>
        <time>2020-09-26T08:58:43.459Z</time>
      </trkpt>
      <trkpt lat="47.445368" lon="11.701028">
        <ele>930.937975</ele>
        <time>2020-09-26T08:58:52.453Z</time>
      </trkpt>
      <trkpt lat="47.445467" lon="11.701037">
        <ele>930.997360</ele>
        <time>2020-09-26T08:59:02.504Z</time>
      </trkpt>
      <trkpt lat="47.445550" lon="11.701097">
        <ele>930.877762</ele>
        <time>2020-09-26T08:59:13.461Z</time>
      </trkpt>
      <trkpt lat="47.445640" lon="11.701085">
        <ele>930.685974</ele>
        <time>2020-09-26T08:59:22.457Z</time>
      </trkpt>
      <trkpt lat="47.445733" lon="11.701055">
        <ele>930.483951</ele>
        <time>2020-09-26T08:59:30.461Z</time>
      </trkpt>
      <trkpt lat="47.445835" lon="11.701083">
        <ele>930.263771</ele>
        <time>2020-09-26T08:59:38.492Z</time>
      </trkpt>
      <trkpt lat="47.445918" lon="11.701143">
        <ele>930.067690</ele>
        <time>2020-09-26T08:59:48.462Z</time>
      </trkpt>
      <trkpt lat="47.446008" lon="11.701195">
        <ele>929.862612</ele>
        <time>2020-09-26T08:59:56.511Z</time>
      </trkpt>
      <trkpt lat="47.446097" lon="11.701255">
        <ele>929.655016</ele>
        <time>2020-09-26T09:00:05.457Z</time>
      </trkpt>
      <trkpt lat="47.446172" lon="11.701328">
        <ele>929.464448</ele>
        <time>2020-09-26T09:00:21.463Z</time>
      </trkpt>
      <trkpt lat="47.446263" lon="11.701353">
        <ele>929.268007</ele>
        <time>2020-09-26T09:00:35.462Z</time>
      </trkpt>
      <trkpt lat="47.446357" lon="11.701342">
        <ele>929.067881</ele>
        <time>2020-09-26T09:00:46.461Z</time>
      </trkpt>
      <trkpt lat="47.446452" lon="11.701377">
        <ele>928.860092</ele>
        <time>2020-09-26T09:00:57.460Z</time>
      </trkpt>
      <trkpt lat="47.446545" lon="11.701383">
        <ele>928.662524</ele>
        <time>2020-09-26T09:01:08.496Z</time>
      </trkpt>
      <trkpt lat="47.446637" lon="11.701390">
        <ele>928.467007</ele>
        <time>2020-09-26T09:01:19.462Z</time>
      </trkpt>
      <trkpt lat="47.446727" lon="11.701428">
        <ele>928.268360</ele>
        <time>2020-09-26T09:01:29.459Z</time>
      </trkpt>
      <trkpt lat="47.446817" lon="11.701423">
        <ele>928.077212</ele>
        <time>2020-09-26T09:01:37.466Z</time>
      </trkpt>
      <trkpt lat="47.446913" lon="11.701450">
        <ele>927.869812</ele>
        <time>2020-09-26T09:01:48.477Z</time>
      </trkpt>
      <trkpt lat="47.447005" lon="11.701462">
        <ele>927.673795</ele>
        <time>2020-09-26T09:01:58.459Z</time>
      </trkpt>
      <trkpt lat="47.447100" lon="11.701492">
        <ele>927.467624</ele>
        <time>2020-09-26T09:02:08.492Z</time>
      </trkpt>
      <trkpt lat="47.447187" lon="11.701530">
        <ele>927.275091</ele>
        <time>2020-09-26T09:02:15.461Z</time>
      </trkpt>
      <trkpt lat="47.447275" lon="11.701568">
        <ele>927.321162</ele>
        <time>2020-09-26T09:02:25.461Z</time>
      </trkpt>
      <trkpt lat="47.447365" lon="11.701625">
        <ele>927.543389</ele>
        <time>2020-09-26T09:02:35.463Z</time>
      </trkpt>
      <trkpt lat="47.447453" lon="11.701665">
        <ele>927.752352</ele>
        <time>2020-09-26T09:02:45.464Z</time>
      </trkpt>
      <trkpt lat="47.447528" lon="11.701738">
        <ele>927.956153</ele>
        <time>2020-09-26T09:02:59.457Z</time>
      </trkpt>
      <trkpt lat="47.447610" lon="11.701800">
        <ele>928.165193</ele>
        <time>2020-09-26T09:03:08.495Z</time>
      </trkpt>
      <trkpt lat="47.447703" lon="11.701835">
        <ele>928.383011</ele>
        <time>2020-09-26T09:03:18.465Z</time>
      </trkpt>
      <trkpt lat="47.447792" lon="11.701887">
        <ele>928.600217</ele>
        <time>2020-09-26T09:03:29.463Z</time>
      </trkpt>
      <trkpt lat="47.447918" lon="11.701952">
        <ele>928.903112</ele>
        <time>2020-09-26T09:03:35.460Z</time>
      </trkpt>
      <trkpt lat="47.448018" lon="11.701945">
        <ele>929.130342</ele>
        <time>2020-09-26T09:03:46.464Z</time>
      </trkpt>
      <trkpt lat="47.448108" lon="11.701977">
        <ele>929.340443</ele>
        <time>2020-09-26T09:03:56.507Z</time>
      </trkpt>
      <trkpt lat="47.448200" lon="11.702023">
        <ele>929.560876</ele>
        <time>2020-09-26T09:04:08.494Z</time>
      </trkpt>
      <trkpt lat="47.448292" lon="11.702010">
        <ele>929.770646</ele>
        <time>2020-09-26T09:04:22.464Z</time>
      </trkpt>
      <trkpt lat="47.448382" lon="11.701998">
        <ele>929.975753</ele>
        <time>2020-09-26T09:04:36.465Z</time>
      </trkpt>
      <trkpt lat="47.448475" lon="11.701985">
        <ele>930.187783</ele>
        <time>2020-09-26T09:04:47.468Z</time>
      </trkpt>
      <trkpt lat="47.448567" lon="11.702008">
        <ele>930.399564</ele>
        <time>2020-09-26T09:04:58.460Z</time>
      </trkpt>
      <trkpt lat="47.448652" lon="11.702060">
        <ele>930.608353</ele>
        <time>2020-09-26T09:05:06.463Z</time>
      </trkpt>
      <trkpt lat="47.448728" lon="11.702132">
        <ele>930.813220</ele>
        <time>2020-09-26T09:05:15.454Z</time>
      </trkpt>
      <trkpt lat="47.448790" lon="11.702233">
        <ele>931.022594</ele>
        <time>2020-09-26T09:05:33.465Z</time>
      </trkpt>
      <trkpt lat="47.448825" lon="11.702088">
        <ele>931.258911</ele>
        <time>2020-09-26T09:07:10.458Z</time>
      </trkpt>
      <trkpt lat="47.448900" lon="11.702012">
        <ele>930.819847</ele>
        <time>2020-09-26T09:07:19.461Z</time>
      </trkpt>
      <trkpt lat="47.448995" lon="11.701957">
        <ele>930.247761</ele>
        <time>2020-09-26T09:07:25.465Z</time>
      </trkpt>
      <trkpt lat="47.449058" lon="11.701860">
        <ele>929.737761</ele>
        <time>2020-09-26T09:07:35.461Z</time>
      </trkpt>
      <trkpt lat="47.449130" lon="11.701768">
        <ele>929.204173</ele>
        <time>2020-09-26T09:07:41.463Z</time>
      </trkpt>
      <trkpt lat="47.449200" lon="11.701677">
        <ele>928.681532</ele>
        <time>2020-09-26T09:07:46.466Z</time>
      </trkpt>
      <trkpt lat="47.449292" lon="11.701592">
        <ele>928.073227</ele>
        <time>2020-09-26T09:07:52.449Z</time>
      </trkpt>
      <trkpt lat="47.449382" lon="11.701512">
        <ele>927.484392</ele>
        <time>2020-09-26T09:07:57.464Z</time>
      </trkpt>
      <trkpt lat="47.449467" lon="11.701452">
        <ele>926.956235</ele>
        <time>2020-09-26T09:08:03.462Z</time>
      </trkpt>
      <trkpt lat="47.449557" lon="11.701393">
        <ele>926.404191</ele>
        <time>2020-09-26T09:08:10.459Z</time>
      </trkpt>
      <trkpt lat="47.449645" lon="11.701342">
        <ele>925.874187</ele>
        <time>2020-09-26T09:08:17.462Z</time>
      </trkpt>
      <trkpt lat="47.449737" lon="11.701293">
        <ele>925.325855</ele>
        <time>2020-09-26T09:08:25.465Z</time>
      </trkpt>
      <trkpt lat="47.449843" lon="11.701262">
        <ele>924.719947</ele>
        <time>2020-09-26T09:08:32.504Z</time>
      </trkpt>
      <trkpt lat="47.449943" lon="11.701252">
        <ele>924.157916</ele>
        <time>2020-09-26T09:08:39.459Z</time>
      </trkpt>
      <trkpt lat="47.450037" lon="11.701253">
        <ele>923.630796</ele>
        <time>2020-09-26T09:08:45.461Z</time>
      </trkpt>
      <trkpt lat="47.450133" lon="11.701265">
        <ele>923.090556</ele>
        <time>2020-09-26T09:08:52.459Z</time>
      </trkpt>
      <trkpt lat="47.450237" lon="11.701268">
        <ele>922.507264</ele>
        <time>2020-09-26T09:08:58.462Z</time>
      </trkpt>
      <trkpt lat="47.450333" lon="11.701275">
        <ele>921.968289</ele>
        <time>2020-09-26T09:09:04.456Z</time>
      </trkpt>
      <trkpt lat="47.450432" lon="11.701280">
        <ele>921.412822</ele>
        <time>2020-09-26T09:09:10.480Z</time>
      </trkpt>
      <trkpt lat="47.450535" lon="11.701265">
        <ele>921.631001</ele>
        <time>2020-09-26T09:09:15.459Z</time>
      </trkpt>
      <trkpt lat="47.450627" lon="11.701277">
        <ele>922.258893</ele>
        <time>2020-09-26T09:09:20.508Z</time>
      </trkpt>
      <trkpt lat="47.450720" lon="11.701315">
        <ele>922.914846</ele>
        <time>2020-09-26T09:09:26.499Z</time>
      </trkpt>
      <trkpt lat="47.450813" lon="11.701335">
        <ele>923.553759</ele>
        <time>2020-09-26T09:09:32.508Z</time>
      </trkpt>
      <trkpt lat="47.450915" lon="11.701355">
        <ele>924.253277</ele>
        <time>2020-09-26T09:09:38.508Z</time>
      </trkpt>
      <trkpt lat="47.451008" lon="11.701367">
        <ele>924.887941</ele>
        <time>2020-09-26T09:09:44.500Z</time>
      </trkpt>
      <trkpt lat="47.451108" lon="11.701388">
        <ele>925.574614</ele>
        <time>2020-09-26T09:09:51.462Z</time>
      </trkpt>
      <trkpt lat="47.451210" lon="11.701405">
        <ele>926.272453</ele>
        <time>2020-09-26T09:09:57.460Z</time>
      </trkpt>
      <trkpt lat="47.451303" lon="11.701405">
        <ele>926.904715</ele>
        <time>2020-09-26T09:10:02.504Z</time>
      </trkpt>
      <trkpt lat="47.451395" lon="11.701385">
        <ele>927.536900</ele>
        <time>2020-09-26T09:10:09.458Z</time>
      </trkpt>
      <trkpt lat="47.451492" lon="11.701387">
        <ele>928.196421</ele>
        <time>2020-09-26T09:10:14.508Z</time>
      </trkpt>
      <trkpt lat="47.451580" lon="11.701427">
        <ele>928.822313</ele>
        <time>2020-09-26T09:10:20.502Z</time>
      </trkpt>
      <trkpt lat="47.451687" lon="11.701412">
        <ele>929.553016</ele>
        <time>2020-09-26T09:10:28.463Z</time>
      </trkpt>
      <trkpt lat="47.451787" lon="11.701412">
        <ele>930.232868</ele>
        <time>2020-09-26T09:10:37.465Z</time>
      </trkpt>
      <trkpt lat="47.451880" lon="11.701407">
        <ele>930.865547</ele>
        <time>2020-09-26T09:10:47.461Z</time>
      </trkpt>
      <trkpt lat="47.451978" lon="11.701388">
        <ele>931.537503</ele>
        <time>2020-09-26T09:10:56.502Z</time>
      </trkpt>
      <trkpt lat="47.452070" lon="11.701368">
        <ele>932.169689</ele>
        <time>2020-09-26T09:11:03.468Z</time>
      </trkpt>
      <trkpt lat="47.452173" lon="11.701393">
        <ele>932.879305</ele>
        <time>2020-09-26T09:11:12.460Z</time>
      </trkpt>
      <trkpt lat="47.452275" lon="11.701387">
        <ele>933.364727</ele>
        <time>2020-09-26T09:11:22.461Z</time>
      </trkpt>
      <trkpt lat="47.452368" lon="11.701395">
        <ele>933.127846</ele>
        <time>2020-09-26T09:11:32.505Z</time>
      </trkpt>
      <trkpt lat="47.452460" lon="11.701407">
        <ele>932.892999</ele>
        <time>2020-09-26T09:11:40.466Z</time>
      </trkpt>
      <trkpt lat="47.452548" lon="11.701432">
        <ele>932.665140</ele>
        <time>2020-09-26T09:11:47.462Z</time>
      </trkpt>
      <trkpt lat="47.452638" lon="11.701482">
        <ele>932.420671</ele>
        <time>2020-09-26T09:11:56.510Z</time>
      </trkpt>
      <trkpt lat="47.452725" lon="11.701543">
        <ele>932.175842</ele>
        <time>2020-09-26T09:12:05.464Z</time>
      </trkpt>
      <trkpt lat="47.452805" lon="11.701608">
        <ele>931.943737</ele>
        <time>2020-09-26T09:12:14.500Z</time>
      </trkpt>
      <trkpt lat="47.452898" lon="11.701655">
        <ele>931.693828</ele>
        <time>2020-09-26T09:12:25.463Z</time>
      </trkpt>
      <trkpt lat="47.452992" lon="11.701665">
        <ele>931.454186</ele>
        <time>2020-09-26T09:12:34.462Z</time>
      </trkpt>
      <trkpt lat="47.453090" lon="11.701613">
        <ele>931.189436</ele>
        <time>2020-09-26T09:12:45.461Z</time>
      </trkpt>
      <trkpt lat="47.453178" lon="11.701583">
        <ele>930.959800</ele>
        <time>2020-09-26T09:12:54.462Z</time>
      </trkpt>
      <trkpt lat="47.453270" lon="11.701573">
        <ele>930.725230</ele>
        <time>2020-09-26T09:13:04.456Z</time>
      </trkpt>
      <trkpt lat="47.453363" lon="11.701557">
        <ele>930.487154</ele>
        <time>2020-09-26T09:13:15.461Z</time>
      </trkpt>
      <trkpt lat="47.453490" lon="11.701693">
        <ele>930.088443</ele>
        <time>2020-09-26T09:14:50.502Z</time>
      </trkpt>
      <trkpt lat="47.453587" lon="11.701677">
        <ele>929.840261</ele>
        <time>2020-09-26T09:14:56.513Z</time>
      </trkpt>
      <trkpt lat="47.453680" lon="11.701683">
        <ele>929.603555</ele>
        <time>2020-09-26T09:15:02.509Z</time>
      </trkpt>
      <trkpt lat="47.453777" lon="11.701662">
        <ele>929.354273</ele>
        <time>2020-09-26T09:15:08.499Z</time>
      </trkpt>
      <trkpt lat="47.453865" lon="11.701618">
        <ele>929.118063</ele>
        <time>2020-09-26T09:15:15.462Z</time>
      </trkpt>
      <trkpt lat="47.453955" lon="11.701565">
        <ele>928.871733</ele>
        <time>2020-09-26T09:15:22.459Z</time>
      </trkpt>
      <trkpt lat="47.454047" lon="11.701560">
        <ele>929.076902</ele>
        <time>2020-09-26T09:15:29.462Z</time>
      </trkpt>
      <trkpt lat="47.454138" lon="11.701592">
        <ele>929.335964</ele>
        <time>2020-09-26T09:15:35.464Z</time>
      </trkpt>
      <trkpt lat="47.454230" lon="11.701630">
        <ele>929.600519</ele>
        <time>2020-09-26T09:15:41.465Z</time>
      </trkpt>
      <trkpt lat="47.454323" lon="11.701653">
        <ele>929.861670</ele>
        <time>2020-09-26T09:15:46.454Z</time>
      </trkpt>
      <trkpt lat="47.454422" lon="11.701695">
        <ele>930.146921</ele>
        <time>2020-09-26T09:15:52.462Z</time>
      </trkpt>
      <trkpt lat="47.454517" lon="11.701710">
        <ele>930.411529</ele>
        <time>2020-09-26T09:15:58.461Z</time>
      </trkpt>
      <trkpt lat="47.454615" lon="11.701700">
        <ele>930.683597</ele>
        <time>2020-09-26T09:16:05.461Z</time>
      </trkpt>
      <trkpt lat="47.454718" lon="11.701690">
        <ele>930.969481</ele>
        <time>2020-09-26T09:16:13.464Z</time>
      </trkpt>
      <trkpt lat="47.454808" lon="11.701655">
        <ele>931.227220</ele>
        <time>2020-09-26T09:16:20.497Z</time>
      </trkpt>
      <trkpt lat="47.454895" lon="11.701592">
        <ele>931.495510</ele>
        <time>2020-09-26T09:16:27.460Z</time>
      </trkpt>
      <trkpt lat="47.454995" lon="11.701537">
        <ele>931.791004</ele>
        <time>2020-09-26T09:16:34.459Z</time>
      </trkpt>
      <trkpt lat="47.455080" lon="11.701478">
        <ele>932.051061</ele>
        <time>2020-09-26T09:16:43.460Z</time>
      </trkpt>
      <trkpt lat="47.455168" lon="11.701413">
        <ele>932.323494</ele>
        <time>2020-09-26T09:16:51.460Z</time>
      </trkpt>
      <trkpt lat="47.455262" lon="11.701380">
        <ele>932.591072</ele>
        <time>2020-09-26T09:16:59.461Z</time>
      </trkpt>
      <trkpt lat="47.455352" lon="11.701375">
        <ele>932.840513</ele>
        <time>2020-09-26T09:17:06.459Z</time>
      </trkpt>
      <trkpt lat="47.455440" lon="11.701343">
        <ele>933.091498</ele>
        <time>2020-09-26T09:17:14.500Z</time>
      </trkpt>
      <trkpt lat="47.455530" lon="11.701363">
        <ele>933.343562</ele>
        <time>2020-09-26T09:17:22.459Z</time>
      </trkpt>
      <trkpt lat="47.455613" lon="11.701433">
        <ele>933.608190</ele>
        <time>2020-09-26T09:17:30.461Z</time>
      </trkpt>
      <trkpt lat="47.455690" lon="11.701503">
        <ele>933.859752</ele>
        <time>2020-09-26T09:17:40.462Z</time>
      </trkpt>
      <trkpt lat="47.455780" lon="11.701570">
        <ele>934.150652</ele>
        <time>2020-09-26T09:17:50.498Z</time>
      </trkpt>
      <trkpt lat="47.455857" lon="11.701653">
        <ele>934.425739</ele>
        <time>2020-09-26T09:18:01.457Z</time>
      </trkpt>
      <trkpt lat="47.455935" lon="11.701727">
        <ele>934.693283</ele>
        <time>2020-09-26T09:18:12.460Z</time>
      </trkpt>
      <trkpt lat="47.456025" lon="11.701707">
        <ele>934.956039</ele>
        <time>2020-09-26T09:18:23.460Z</time>
      </trkpt>
      <trkpt lat="47.456090" lon="11.701610">
        <ele>935.222633</ele>
        <time>2020-09-26T09:18:37.458Z</time>
      </trkpt>
      <trkpt lat="47.456170" lon="11.701547">
        <ele>935.484302</ele>
        <time>2020-09-26T09:18:50.495Z</time>
      </trkpt>
      <trkpt lat="47.456268" lon="11.701515">
        <ele>935.774051</ele>
        <time>2020-09-26T09:19:00.461Z</time>
      </trkpt>
      <trkpt lat="47.456358" lon="11.701532">
        <ele>936.036000</ele>
        <time>2020-09-26T09:19:14.495Z</time>
      </trkpt>
      <trkpt lat="47.456458" lon="11.701562">
        <ele>936.330589</ele>
        <time>2020-09-26T09:19:22.467Z</time>
      </trkpt>
      <trkpt lat="47.456532" lon="11.701658">
        <ele>936.614779</ele>
        <time>2020-09-26T09:19:31.458Z</time>
      </trkpt>
      <trkpt lat="47.456577" lon="11.701775">
        <ele>936.877541</ele>
        <time>2020-09-26T09:19:42.456Z</time>
      </trkpt>
      <trkpt lat="47.456665" lon="11.701820">
        <ele>937.146363</ele>
        <time>2020-09-26T09:19:53.435Z</time>
      </trkpt>
      <trkpt lat="47.456752" lon="11.701877">
        <ele>937.421083</ele>
        <time>2020-09-26T09:20:06.455Z</time>
      </trkpt>
      <trkpt lat="47.456843" lon="11.701898">
        <ele>937.686987</ele>
        <time>2020-09-26T09:20:15.460Z</time>
      </trkpt>
      <trkpt lat="47.456925" lon="11.701960">
        <ele>937.952872</ele>
        <time>2020-09-26T09:20:26.471Z</time>
      </trkpt>
      <trkpt lat="47.457020" lon="11.701997">
        <ele>938.236497</ele>
        <time>2020-09-26T09:20:37.457Z</time>
      </trkpt>
      <trkpt lat="47.457102" lon="11.702068">
        <ele>938.510825</ele>
        <time>2020-09-26T09:20:47.480Z</time>
      </trkpt>
      <trkpt lat="47.457213" lon="11.702193">
        <ele>938.913616</ele>
        <time>2020-09-26T09:23:46.464Z</time>
      </trkpt>
      <trkpt lat="47.457298" lon="11.702265">
        <ele>939.216612</ele>
        <time>2020-09-26T09:23:54.477Z</time>
      </trkpt>
      <trkpt lat="47.457362" lon="11.702367">
        <ele>939.519753</ele>
        <time>2020-09-26T09:24:01.520Z</time>
      </trkpt>
      <trkpt lat="47.457442" lon="11.702447">
        <ele>939.830895</ele>
        <time>2020-09-26T09:24:09.460Z</time>
      </trkpt>
      <trkpt lat="47.457533" lon="11.702517">
        <ele>940.161375</ele>
        <time>2020-09-26T09:24:16.456Z</time>
      </trkpt>
      <trkpt lat="47.457617" lon="11.702592">
        <ele>940.477510</ele>
        <time>2020-09-26T09:24:23.462Z</time>
      </trkpt>
      <trkpt lat="47.457700" lon="11.702678">
        <ele>940.804025</ele>
        <time>2020-09-26T09:24:31.460Z</time>
      </trkpt>
      <trkpt lat="47.457767" lon="11.702773">
        <ele>941.103072</ele>
        <time>2020-09-26T09:24:38.502Z</time>
      </trkpt>
      <trkpt lat="47.457850" lon="11.702850">
        <ele>941.418746</ele>
        <time>2020-09-26T09:24:45.459Z</time>
      </trkpt>
      <trkpt lat="47.457933" lon="11.702910">
        <ele>941.716399</ele>
        <time>2020-09-26T09:24:52.459Z</time>
      </trkpt>
      <trkpt lat="47.458025" lon="11.702982">
        <ele>942.051756</ele>
        <time>2020-09-26T09:25:01.458Z</time>
      </trkpt>
      <trkpt lat="47.458080" lon="11.703097">
        <ele>942.358614</ele>
        <time>2020-09-26T09:25:09.459Z</time>
      </trkpt>
      <trkpt lat="47.458130" lon="11.703210">
        <ele>942.652805</ele>
        <time>2020-09-26T09:25:20.504Z</time>
      </trkpt>
      <trkpt lat="47.458215" lon="11.703278">
        <ele>942.964165</ele>
        <time>2020-09-26T09:25:29.452Z</time>
      </trkpt>
      <trkpt lat="47.458302" lon="11.703325">
        <ele>943.262586</ele>
        <time>2020-09-26T09:25:42.464Z</time>
      </trkpt>
      <trkpt lat="47.458360" lon="11.703445">
        <ele>943.583921</ele>
        <time>2020-09-26T09:25:52.457Z</time>
      </trkpt>
      <trkpt lat="47.458435" lon="11.703530">
        <ele>943.888353</ele>
        <time>2020-09-26T09:26:01.461Z</time>
      </trkpt>
      <trkpt lat="47.458527" lon="11.703580">
        <ele>944.204148</ele>
        <time>2020-09-26T09:26:11.461Z</time>
      </trkpt>
      <trkpt lat="47.458617" lon="11.703613">
        <ele>944.502899</ele>
        <time>2020-09-26T09:26:21.459Z</time>
      </trkpt>
      <trkpt lat="47.458700" lon="11.703697">
        <ele>944.826473</ele>
        <time>2020-09-26T09:26:31.461Z</time>
      </trkpt>
      <trkpt lat="47.458783" lon="11.703765">
        <ele>945.117486</ele>
        <time>2020-09-26T09:26:40.460Z</time>
      </trkpt>
      <trkpt lat="47.458883" lon="11.703783">
        <ele>945.426456</ele>
        <time>2020-09-26T09:26:48.464Z</time>
      </trkpt>
      <trkpt lat="47.458975" lon="11.703805">
        <ele>945.712291</ele>
        <time>2020-09-26T09:26:58.459Z</time>
      </trkpt>
      <trkpt lat="47.459063" lon="11.703848">
        <ele>945.996541</ele>
        <time>2020-09-26T09:27:08.503Z</time>
      </trkpt>
      <trkpt lat="47.459155" lon="11.703893">
        <ele>946.293741</ele>
        <time>2020-09-26T09:27:17.465Z</time>
      </trkpt>
      <trkpt lat="47.459252" lon="11.703915">
        <ele>946.594725</ele>
        <time>2020-09-26T09:27:28.456Z</time>
      </trkpt>
      <trkpt lat="47.459342" lon="11.703940">
        <ele>946.875587</ele>
        <time>2020-09-26T09:27:36.467Z</time>
      </trkpt>
      <trkpt lat="47.459432" lon="11.703923">
        <ele>947.153865</ele>
        <time>2020-09-26T09:27:45.464Z</time>
      </trkpt>
      <trkpt lat="47.459518" lon="11.703887">
        <ele>947.427994</ele>
        <time>2020-09-26T09:27:54.471Z</time>
      </trkpt>
      <trkpt lat="47.459612" lon="11.703880">
        <ele>947.716663</ele>
        <time>2020-09-26T09:28:06.467Z</time>
      </trkpt>
      <trkpt lat="47.459708" lon="11.703857">
        <ele>948.014940</ele>
        <time>2020-09-26T09:28:17.457Z</time>
      </trkpt>
      <trkpt lat="47.459798" lon="11.703832">
        <ele>948.295802</ele>
        <time>2020-09-26T09:28:26.474Z</time>
      </trkpt>
      <trkpt lat="47.459885" lon="11.703792">
        <ele>948.575232</ele>
        <time>2020-09-26T09:28:34.461Z</time>
      </trkpt>
      <trkpt lat="47.459973" lon="11.703750">
        <ele>948.858838</ele>
        <time>2020-09-26T09:28:43.461Z</time>
      </trkpt>
      <trkpt lat="47.460063" lon="11.703730">
        <ele>949.137973</ele>
        <time>2020-09-26T09:28:52.462Z</time>
      </trkpt>
      <trkpt lat="47.460153" lon="11.703697">
        <ele>949.422364</ele>
        <time>2020-09-26T09:29:00.460Z</time>
      </trkpt>
      <trkpt lat="47.460248" lon="11.703677">
        <ele>949.716673</ele>
        <time>2020-09-26T09:29:11.449Z</time>
      </trkpt>
      <trkpt lat="47.460335" lon="11.703635">
        <ele>949.997361</ele>
        <time>2020-09-26T09:29:23.459Z</time>
      </trkpt>
      <trkpt lat="47.460478" lon="11.703585">
        <ele>950.251479</ele>
        <time>2020-09-26T09:31:12.469Z</time>
      </trkpt>
      <trkpt lat="47.460563" lon="11.703515">
        <ele>950.035827</ele>
        <time>2020-09-26T09:31:22.464Z</time>
      </trkpt>
      <trkpt lat="47.460628" lon="11.703407">
        <ele>949.819132</ele>
        <time>2020-09-26T09:31:32.505Z</time>
      </trkpt>
      <trkpt lat="47.460705" lon="11.703323">
        <ele>949.607047</ele>
        <time>2020-09-26T09:31:38.504Z</time>
      </trkpt>
      <trkpt lat="47.460787" lon="11.703255">
        <ele>949.398663</ele>
        <time>2020-09-26T09:31:47.463Z</time>
      </trkpt>
      <trkpt lat="47.460880" lon="11.703205">
        <ele>949.179318</ele>
        <time>2020-09-26T09:31:55.461Z</time>
      </trkpt>
      <trkpt lat="47.460965" lon="11.703140">
        <ele>948.967211</ele>
        <time>2020-09-26T09:32:01.460Z</time>
      </trkpt>
      <trkpt lat="47.461062" lon="11.703123">
        <ele>948.750693</ele>
        <time>2020-09-26T09:32:09.473Z</time>
      </trkpt>
      <trkpt lat="47.461142" lon="11.703050">
        <ele>948.542330</ele>
        <time>2020-09-26T09:32:15.458Z</time>
      </trkpt>
      <trkpt lat="47.461232" lon="11.702998">
        <ele>948.328151</ele>
        <time>2020-09-26T09:32:22.462Z</time>
      </trkpt>
      <trkpt lat="47.461318" lon="11.702922">
        <ele>948.106086</ele>
        <time>2020-09-26T09:32:29.462Z</time>
      </trkpt>
      <trkpt lat="47.461395" lon="11.702852">
        <ele>947.905743</ele>
        <time>2020-09-26T09:32:35.462Z</time>
      </trkpt>
      <trkpt lat="47.461507" lon="11.702845">
        <ele>947.657257</ele>
        <time>2020-09-26T09:33:06.460Z</time>
      </trkpt>
      <trkpt lat="47.461593" lon="11.702890">
        <ele>947.455048</ele>
        <time>2020-09-26T09:33:17.460Z</time>
      </trkpt>
      <trkpt lat="47.461685" lon="11.702892">
        <ele>947.251095</ele>
        <time>2020-09-26T09:33:30.467Z</time>
      </trkpt>
      <trkpt lat="47.461768" lon="11.702837">
        <ele>947.049494</ele>
        <time>2020-09-26T09:33:58.459Z</time>
      </trkpt>
      <trkpt lat="47.461877" lon="11.702895">
        <ele>946.792720</ele>
        <time>2020-09-26T09:35:56.512Z</time>
      </trkpt>
      <trkpt lat="47.461932" lon="11.703000">
        <ele>946.593661</ele>
        <time>2020-09-26T09:36:09.451Z</time>
      </trkpt>
      <trkpt lat="47.461992" lon="11.703103">
        <ele>946.389908</ele>
        <time>2020-09-26T09:36:28.455Z</time>
      </trkpt>
      <trkpt lat="47.462068" lon="11.703180">
        <ele>945.963845</ele>
        <time>2020-09-26T09:36:40.458Z</time>
      </trkpt>
      <trkpt lat="47.462140" lon="11.703262">
        <ele>945.485315</ele>
        <time>2020-09-26T09:36:50.502Z</time>
      </trkpt>
      <trkpt lat="47.462235" lon="11.703267">
        <ele>944.984722</ele>
        <time>2020-09-26T09:37:05.457Z</time>
      </trkpt>
      <trkpt lat="47.462325" lon="11.703333">
        <ele>944.455723</ele>
        <time>2020-09-26T09:37:17.463Z</time>
      </trkpt>
      <trkpt lat="47.462413" lon="11.703373">
        <ele>943.970921</ele>
        <time>2020-09-26T09:37:33.459Z</time>
      </trkpt>
      <trkpt lat="47.462503" lon="11.703348">
        <ele>943.488689</ele>
        <time>2020-09-26T09:37:55.457Z</time>
      </trkpt>
      <trkpt lat="47.462557" lon="11.703235">
        <ele>942.996027</ele>
        <time>2020-09-26T09:39:47.459Z</time>
      </trkpt>
      <trkpt lat="47.462615" lon="11.703338">
        <ele>942.518784</ele>
        <time>2020-09-26T09:40:04.462Z</time>
      </trkpt>
      <trkpt lat="47.462677" lon="11.703435">
        <ele>942.043535</ele>
        <time>2020-09-26T09:40:36.482Z</time>
      </trkpt>
      <trkpt lat="47.462750" lon="11.703520">
        <ele>941.554290</ele>
        <time>2020-09-26T09:40:43.458Z</time>
      </trkpt>
      <trkpt lat="47.462845" lon="11.703522">
        <ele>941.053963</ele>
        <time>2020-09-26T09:40:54.463Z</time>
      </trkpt>
      <trkpt lat="47.462933" lon="11.703575">
        <ele>940.553606</ele>
        <time>2020-09-26T09:41:04.474Z</time>
      </trkpt>
      <trkpt lat="47.463023" lon="11.703580">
        <ele>940.079325</ele>
        <time>2020-09-26T09:41:26.518Z</time>
      </trkpt>
      <trkpt lat="47.463112" lon="11.703522">
        <ele>939.567173</ele>
        <time>2020-09-26T09:42:42.459Z</time>
      </trkpt>
      <trkpt lat="47.463202" lon="11.703453">
        <ele>939.033346</ele>
        <time>2020-09-26T09:43:20.505Z</time>
      </trkpt>
      <trkpt lat="47.463260" lon="11.703555">
        <ele>938.558836</ele>
        <time>2020-09-26T09:43:35.461Z</time>
      </trkpt>
      <trkpt lat="47.463352" lon="11.703572">
        <ele>938.070592</ele>
        <time>2020-09-26T09:44:07.459Z</time>
      </trkpt>
      <trkpt lat="47.463432" lon="11.703633">
        <ele>937.596625</ele>
        <time>2020-09-26T09:44:39.457Z</time>
      </trkpt>
      <trkpt lat="47.463525" lon="11.703625">
        <ele>937.106053</ele>
        <time>2020-09-26T09:44:50.503Z</time>
      </trkpt>
      <trkpt lat="47.463615" lon="11.703663">
        <ele>936.729020</ele>
        <time>2020-09-26T09:45:02.510Z</time>
      </trkpt>
      <trkpt lat="47.463682" lon="11.703757">
        <ele>936.457717</ele>
        <time>2020-09-26T09:45:15.456Z</time>
      </trkpt>
      <trkpt lat="47.463765" lon="11.703815">
        <ele>936.188027</ele>
        <time>2020-09-26T09:45:32.507Z</time>
      </trkpt>
      <trkpt lat="47.463837" lon="11.703902">
        <ele>935.914887</ele>
        <time>2020-09-26T09:45:45.481Z</time>
      </trkpt>
      <trkpt lat="47.463923" lon="11.703938">
        <ele>935.652302</ele>
        <time>2020-09-26T09:46:04.459Z</time>
      </trkpt>
      <trkpt lat="47.464008" lon="11.703893">
        <ele>935.387065</ele>
        <time>2020-09-26T09:46:38.505Z</time>
      </trkpt>
      <trkpt lat="47.464140" lon="11.703863">
        <ele>934.994707</ele>
        <time>2020-09-26T09:47:37.451Z</time>
      </trkpt>
      <trkpt lat="47.464225" lon="11.703810">
        <ele>934.723703</ele>
        <time>2020-09-26T09:48:08.506Z</time>
      </trkpt>
      <trkpt lat="47.464307" lon="11.703897">
        <ele>934.427228</ele>
        <time>2020-09-26T09:48:22.458Z</time>
      </trkpt>
      <trkpt lat="47.464403" lon="11.703833">
        <ele>934.117865</ele>
        <time>2020-09-26T09:48:32.506Z</time>
      </trkpt>
      <trkpt lat="47.464502" lon="11.703837">
        <ele>933.826901</ele>
        <time>2020-09-26T09:48:45.456Z</time>
      </trkpt>
      <trkpt lat="47.464592" lon="11.703797">
        <ele>933.550809</ele>
        <time>2020-09-26T09:48:56.508Z</time>
      </trkpt>
      <trkpt lat="47.464682" lon="11.703787">
        <ele>933.285651</ele>
        <time>2020-09-26T09:49:08.500Z</time>
      </trkpt>
      <trkpt lat="47.464828" lon="11.703793">
        <ele>932.856547</ele>
        <time>2020-09-26T09:49:38.505Z</time>
      </trkpt>
      <trkpt lat="47.464918" lon="11.703808">
        <ele>932.590460</ele>
        <time>2020-09-26T09:49:55.457Z</time>
      </trkpt>
      <trkpt lat="47.465003" lon="11.703858">
        <ele>932.321714</ele>
        <time>2020-09-26T09:50:17.456Z</time>
      </trkpt>
      <trkpt lat="47.465090" lon="11.703795">
        <ele>932.037130</ele>
        <time>2020-09-26T09:50:45.465Z</time>
      </trkpt>
      <trkpt lat="47.465175" lon="11.703728">
        <ele>931.754163</ele>
        <time>2020-09-26T09:51:00.459Z</time>
      </trkpt>
      <trkpt lat="47.465245" lon="11.703633">
        <ele>931.551341</ele>
        <time>2020-09-26T09:51:14.500Z</time>
      </trkpt>
      <trkpt lat="47.465330" lon="11.703577">
        <ele>931.457956</ele>
        <time>2020-09-26T09:51:33.456Z</time>
      </trkpt>
      <trkpt lat="47.465513" lon="11.703658">
        <ele>931.266252</ele>
        <time>2020-09-26T09:52:28.459Z</time>
      </trkpt>
      <trkpt lat="47.465593" lon="11.703593">
        <ele>931.174650</ele>
        <time>2020-09-26T09:52:40.460Z</time>
      </trkpt>
      <trkpt lat="47.465687" lon="11.703607">
        <ele>931.079835</ele>
        <time>2020-09-26T09:52:53.458Z</time>
      </trkpt>
      <trkpt lat="47.465778" lon="11.703595">
        <ele>930.988146</ele>
        <time>2020-09-26T09:53:09.458Z</time>
      </trkpt>
      <trkpt lat="47.465780" lon="11.703455">
        <ele>930.893140</ele>
        <time>2020-09-26T09:53:27.465Z</time>
      </trkpt>
      <trkpt lat="47.465778" lon="11.703285">
        <ele>930.777784</ele>
        <time>2020-09-26T09:53:32.514Z</time>
      </trkpt>
      <trkpt lat="47.465818" lon="11.703440">
        <ele>930.665221</ele>
        <time>2020-09-26T09:53:55.466Z</time>
      </trkpt>
      <trkpt lat="47.465830" lon="11.703592">
        <ele>930.561394</ele>
        <time>2020-09-26T09:53:57.465Z</time>
      </trkpt>
      <trkpt lat="47.465843" lon="11.703728">
        <ele>930.468205</ele>
        <time>2020-09-26T09:54:02.512Z</time>
      </trkpt>
      <trkpt lat="47.465923" lon="11.703660">
        <ele>930.375606</ele>
        <time>2020-09-26T09:54:37.464Z</time>
      </trkpt>
      <trkpt lat="47.466007" lon="11.703608">
        <ele>930.284220</ele>
        <time>2020-09-26T09:54:53.477Z</time>
      </trkpt>
      <trkpt lat="47.466097" lon="11.703598">
        <ele>930.193642</ele>
        <time>2020-09-26T09:55:03.462Z</time>
      </trkpt>
      <trkpt lat="47.466180" lon="11.703655">
        <ele>930.101804</ele>
        <time>2020-09-26T09:55:17.466Z</time>
      </trkpt>
      <trkpt lat="47.466423" lon="11.703675">
        <ele>929.857553</ele>
        <time>2020-09-26T09:56:56.525Z</time>
      </trkpt>
      <trkpt lat="47.466512" lon="11.703725">
        <ele>929.761047</ele>
        <time>2020-09-26T09:57:11.475Z</time>
      </trkpt>
      <trkpt lat="47.466615" lon="11.703757">
        <ele>929.651153</ele>
        <time>2020-09-26T09:58:26.508Z</time>
      </trkpt>
      <trkpt lat="47.466708" lon="11.703802">
        <ele>929.548985</ele>
        <time>2020-09-26T09:59:45.461Z</time>
      </trkpt>
      <trkpt lat="47.466812" lon="11.703737">
        <ele>929.431099</ele>
        <time>2020-09-26T10:00:07.461Z</time>
      </trkpt>
      <trkpt lat="47.466900" lon="11.703772">
        <ele>929.335951</ele>
        <time>2020-09-26T10:00:18.483Z</time>
      </trkpt>
      <trkpt lat="47.467060" lon="11.703788">
        <ele>929.168506</ele>
        <time>2020-09-26T10:01:03.455Z</time>
      </trkpt>
      <trkpt lat="47.467153" lon="11.703773">
        <ele>929.070825</ele>
        <time>2020-09-26T10:01:21.454Z</time>
      </trkpt>
      <trkpt lat="47.467242" lon="11.703813">
        <ele>928.973702</ele>
        <time>2020-09-26T10:01:35.457Z</time>
      </trkpt>
      <trkpt lat="47.467358" lon="11.703797">
        <ele>928.852055</ele>
        <time>2020-09-26T10:02:21.456Z</time>
      </trkpt>
      <trkpt lat="47.467425" lon="11.703890">
        <ele>928.756122</ele>
        <time>2020-09-26T10:02:33.457Z</time>
      </trkpt>
      <trkpt lat="47.467520" lon="11.703867">
        <ele>928.655608</ele>
        <time>2020-09-26T10:02:51.458Z</time>
      </trkpt>
      <trkpt lat="47.467607" lon="11.703825">
        <ele>928.560052</ele>
        <time>2020-09-26T10:03:09.460Z</time>
      </trkpt>
      <trkpt lat="47.467697" lon="11.703825">
        <ele>928.466079</ele>
        <time>2020-09-26T10:03:28.472Z</time>
      </trkpt>
      <trkpt lat="47.467777" lon="11.703893">
        <ele>928.369740</ele>
        <time>2020-09-26T10:03:44.475Z</time>
      </trkpt>
      <trkpt lat="47.467832" lon="11.704003">
        <ele>928.273166</ele>
        <time>2020-09-26T10:03:56.519Z</time>
      </trkpt>
      <trkpt lat="47.467840" lon="11.704140">
        <ele>928.176105</ele>
        <time>2020-09-26T10:03:58.472Z</time>
      </trkpt>
      <trkpt lat="47.467880" lon="11.704020">
        <ele>928.081666</ele>
        <time>2020-09-26T10:04:04.460Z</time>
      </trkpt>
      <trkpt lat="47.467992" lon="11.703983">
        <ele>927.961841</ele>
        <time>2020-09-26T10:05:45.463Z</time>
      </trkpt>
      <trkpt lat="47.468040" lon="11.704107">
        <ele>928.154570</ele>
        <time>2020-09-26T10:05:54.464Z</time>
      </trkpt>
      <trkpt lat="47.468080" lon="11.704240">
        <ele>928.696717</ele>
        <time>2020-09-26T10:06:05.444Z</time>
      </trkpt>
      <trkpt lat="47.468147" lon="11.704342">
        <ele>929.226402</ele>
        <time>2020-09-26T10:06:17.461Z</time>
      </trkpt>
      <trkpt lat="47.468215" lon="11.704437">
        <ele>929.741704</ele>
        <time>2020-09-26T10:06:28.463Z</time>
      </trkpt>
      <trkpt lat="47.468272" lon="11.704545">
        <ele>930.252002</ele>
        <time>2020-09-26T10:06:38.456Z</time>
      </trkpt>
      <trkpt lat="47.468348" lon="11.704625">
        <ele>930.765900</ele>
        <time>2020-09-26T10:06:49.461Z</time>
      </trkpt>
      <trkpt lat="47.468408" lon="11.704735">
        <ele>931.292308</ele>
        <time>2020-09-26T10:07:00.449Z</time>
      </trkpt>
      <trkpt lat="47.468440" lon="11.704862">
        <ele>931.797085</ele>
        <time>2020-09-26T10:07:10.459Z</time>
      </trkpt>
      <trkpt lat="47.468488" lon="11.704980">
        <ele>932.309985</ele>
        <time>2020-09-26T10:07:22.463Z</time>
      </trkpt>
      <trkpt lat="47.468538" lon="11.705092">
        <ele>932.809859</ele>
        <time>2020-09-26T10:07:33.438Z</time>
      </trkpt>
      <trkpt lat="47.468585" lon="11.705210">
        <ele>933.319940</ele>
        <time>2020-09-26T10:07:45.460Z</time>
      </trkpt>
      <trkpt lat="47.468678" lon="11.705248">
        <ele>933.851497</ele>
        <time>2020-09-26T10:08:00.453Z</time>
      </trkpt>
      <trkpt lat="47.468768" lon="11.705263">
        <ele>934.350478</ele>
        <time>2020-09-26T10:08:10.462Z</time>
      </trkpt>
      <trkpt lat="47.468848" lon="11.705330">
        <ele>934.856960</ele>
        <time>2020-09-26T10:08:23.463Z</time>
      </trkpt>
      <trkpt lat="47.468918" lon="11.705420">
        <ele>935.367919</ele>
        <time>2020-09-26T10:09:00.461Z</time>
      </trkpt>
      <trkpt lat="47.468977" lon="11.705523">
        <ele>935.870720</ele>
        <time>2020-09-26T10:09:18.465Z</time>
      </trkpt>
      <trkpt lat="47.469055" lon="11.705597">
        <ele>936.381232</ele>
        <time>2020-09-26T10:09:30.462Z</time>
      </trkpt>
      <trkpt lat="47.469272" lon="11.705472">
        <ele>937.664205</ele>
        <time>2020-09-26T10:10:46.464Z</time>
      </trkpt>
      <trkpt lat="47.469363" lon="11.705493">
        <ele>937.914784</ele>
        <time>2020-09-26T10:11:10.462Z</time>
      </trkpt>
      <trkpt lat="47.469433" lon="11.705578">
        <ele>938.052207</ele>
        <time>2020-09-26T10:11:24.472Z</time>
      </trkpt>
      <trkpt lat="47.469495" lon="11.705677">
        <ele>938.190642</ele>
        <time>2020-09-26T10:11:38.466Z</time>
      </trkpt>
      <trkpt lat="47.469582" lon="11.705732">
        <ele>938.334210</ele>
        <time>2020-09-26T10:11:52.464Z</time>
      </trkpt>
      <trkpt lat="47.469662" lon="11.705805">
        <ele>938.476844</ele>
        <time>2020-09-26T10:12:06.465Z</time>
      </trkpt>
      <trkpt lat="47.469740" lon="11.705880">
        <ele>938.618010</ele>
        <time>2020-09-26T10:12:36.465Z</time>
      </trkpt>
      <trkpt lat="47.469830" lon="11.705892">
        <ele>938.755135</ele>
        <time>2020-09-26T10:12:50.471Z</time>
      </trkpt>
      <trkpt lat="47.469922" lon="11.705898">
        <ele>938.894876</ele>
        <time>2020-09-26T10:13:06.462Z</time>
      </trkpt>
      <trkpt lat="47.470007" lon="11.705947">
        <ele>939.033307</ele>
        <time>2020-09-26T10:13:17.450Z</time>
      </trkpt>
      <trkpt lat="47.470093" lon="11.705998">
        <ele>939.173903</ele>
        <time>2020-09-26T10:13:29.459Z</time>
      </trkpt>
      <trkpt lat="47.470182" lon="11.706045">
        <ele>939.317304</ele>
        <time>2020-09-26T10:13:43.461Z</time>
      </trkpt>
      <trkpt lat="47.470272" lon="11.706027">
        <ele>939.455117</ele>
        <time>2020-09-26T10:14:00.453Z</time>
      </trkpt>
      <trkpt lat="47.470318" lon="11.705912">
        <ele>939.592184</ele>
        <time>2020-09-26T10:14:12.462Z</time>
      </trkpt>
      <trkpt lat="47.470405" lon="11.705852">
        <ele>939.737844</ele>
        <time>2020-09-26T10:14:47.460Z</time>
      </trkpt>
      <trkpt lat="47.470462" lon="11.705967">
        <ele>939.884119</ele>
        <time>2020-09-26T10:15:06.486Z</time>
      </trkpt>
      <trkpt lat="47.470542" lon="11.706043">
        <ele>940.028391</ele>
        <time>2020-09-26T10:15:25.461Z</time>
      </trkpt>
      <trkpt lat="47.470633" lon="11.706002">
        <ele>940.172741</ele>
        <time>2020-09-26T10:15:39.460Z</time>
      </trkpt>
      <trkpt lat="47.470678" lon="11.705877">
        <ele>940.318010</ele>
        <time>2020-09-26T10:15:57.463Z</time>
      </trkpt>
      <trkpt lat="47.470755" lon="11.705797">
        <ele>940.460791</ele>
        <time>2020-09-26T10:16:18.463Z</time>
      </trkpt>
      <trkpt lat="47.470858" lon="11.705790">
        <ele>940.431100</ele>
        <time>2020-09-26T10:16:32.499Z</time>
      </trkpt>
      <trkpt lat="47.470952" lon="11.705768">
        <ele>940.195504</ele>
        <time>2020-09-26T10:16:41.462Z</time>
      </trkpt>
      <trkpt lat="47.471050" lon="11.705682">
        <ele>939.913428</ele>
        <time>2020-09-26T10:17:20.440Z</time>
      </trkpt>
      <trkpt lat="47.471135" lon="11.705632">
        <ele>939.686982</ele>
        <time>2020-09-26T10:17:38.461Z</time>
      </trkpt>
      <trkpt lat="47.471145" lon="11.705497">
        <ele>939.459724</ele>
        <time>2020-09-26T10:18:06.460Z</time>
      </trkpt>
      <trkpt lat="47.471195" lon="11.705382">
        <ele>939.230915</ele>
        <time>2020-09-26T10:18:23.462Z</time>
      </trkpt>
      <trkpt lat="47.471258" lon="11.705277">
        <ele>938.995978</ele>
        <time>2020-09-26T10:18:35.461Z</time>
      </trkpt>
      <trkpt lat="47.471305" lon="11.705132">
        <ele>938.726885</ele>
        <time>2020-09-26T10:18:56.523Z</time>
      </trkpt>
      <trkpt lat="47.471383" lon="11.705060">
        <ele>938.499287</ele>
        <time>2020-09-26T10:19:04.460Z</time>
      </trkpt>
      <trkpt lat="47.471455" lon="11.704965">
        <ele>938.260455</ele>
        <time>2020-09-26T10:19:16.464Z</time>
      </trkpt>
      <trkpt lat="47.471545" lon="11.704950">
        <ele>938.036246</ele>
        <time>2020-09-26T10:19:31.456Z</time>
      </trkpt>
      <trkpt lat="47.471612" lon="11.704855">
        <ele>937.806504</ele>
        <time>2020-09-26T10:19:46.458Z</time>
      </trkpt>
      <trkpt lat="47.471720" lon="11.704672">
        <ele>937.399988</ele>
        <time>2020-09-26T10:20:23.462Z</time>
      </trkpt>
      <trkpt lat="47.471717" lon="11.704533">
        <ele>937.167273</ele>
        <time>2020-09-26T10:20:51.460Z</time>
      </trkpt>
      <trkpt lat="47.471750" lon="11.704350">
        <ele>936.850339</ele>
        <time>2020-09-26T10:21:21.462Z</time>
      </trkpt>
      <trkpt lat="47.471767" lon="11.704212">
        <ele>936.615612</ele>
        <time>2020-09-26T10:21:42.464Z</time>
      </trkpt>
      <trkpt lat="47.471825" lon="11.704023">
        <ele>936.268281</ele>
        <time>2020-09-26T10:22:03.468Z</time>
      </trkpt>
      <trkpt lat="47.471840" lon="11.703892">
        <ele>936.065869</ele>
        <time>2020-09-26T10:22:14.472Z</time>
      </trkpt>
      <trkpt lat="47.471878" lon="11.703767">
        <ele>935.931842</ele>
        <time>2020-09-26T10:22:30.462Z</time>
      </trkpt>
      <trkpt lat="47.471948" lon="11.703653">
        <ele>935.781236</ele>
        <time>2020-09-26T10:22:43.459Z</time>
      </trkpt>
      <trkpt lat="47.471993" lon="11.703537">
        <ele>935.650450</ele>
        <time>2020-09-26T10:22:58.461Z</time>
      </trkpt>
      <trkpt lat="47.472050" lon="11.703303">
        <ele>935.407223</ele>
        <time>2020-09-26T10:25:08.470Z</time>
      </trkpt>
      <trkpt lat="47.472098" lon="11.703173">
        <ele>935.262371</ele>
        <time>2020-09-26T10:25:19.463Z</time>
      </trkpt>
      <trkpt lat="47.472092" lon="11.703038">
        <ele>935.130073</ele>
        <time>2020-09-26T10:25:32.497Z</time>
      </trkpt>
      <trkpt lat="47.472130" lon="11.702827">
        <ele>934.916545</ele>
        <time>2020-09-26T10:25:56.499Z</time>
      </trkpt>
      <trkpt lat="47.472185" lon="11.702718">
        <ele>934.783535</ele>
        <time>2020-09-26T10:26:08.479Z</time>
      </trkpt>
      <trkpt lat="47.472218" lon="11.702557">
        <ele>934.619019</ele>
        <time>2020-09-26T10:26:38.470Z</time>
      </trkpt>
      <trkpt lat="47.472258" lon="11.702435">
        <ele>934.486426</ele>
        <time>2020-09-26T10:26:48.461Z</time>
      </trkpt>
      <trkpt lat="47.472323" lon="11.702342">
        <ele>934.355611</ele>
        <time>2020-09-26T10:27:05.464Z</time>
      </trkpt>
      <trkpt lat="47.472388" lon="11.702245">
        <ele>934.222047</ele>
        <time>2020-09-26T10:27:15.480Z</time>
      </trkpt>
      <trkpt lat="47.472463" lon="11.702172">
        <ele>934.092170</ele>
        <time>2020-09-26T10:27:33.459Z</time>
      </trkpt>
      <trkpt lat="47.472557" lon="11.702117">
        <ele>933.945935</ele>
        <time>2020-09-26T10:27:41.472Z</time>
      </trkpt>
      <trkpt lat="47.472653" lon="11.702102">
        <ele>933.806283</ele>
        <time>2020-09-26T10:27:55.470Z</time>
      </trkpt>
      <trkpt lat="47.472742" lon="11.702052">
        <ele>933.668559</ele>
        <time>2020-09-26T10:28:07.461Z</time>
      </trkpt>
      <trkpt lat="47.472835" lon="11.702043">
        <ele>933.533732</ele>
        <time>2020-09-26T10:28:24.463Z</time>
      </trkpt>
      <trkpt lat="47.472925" lon="11.702023">
        <ele>933.322051</ele>
        <time>2020-09-26T10:28:41.460Z</time>
      </trkpt>
      <trkpt lat="47.473017" lon="11.701992">
        <ele>933.063882</ele>
        <time>2020-09-26T10:28:52.457Z</time>
      </trkpt>
      <trkpt lat="47.473110" lon="11.701953">
        <ele>932.799399</ele>
        <time>2020-09-26T10:29:06.464Z</time>
      </trkpt>
      <trkpt lat="47.473202" lon="11.701910">
        <ele>932.535413</ele>
        <time>2020-09-26T10:29:20.491Z</time>
      </trkpt>
      <trkpt lat="47.473287" lon="11.701860">
        <ele>932.285134</ele>
        <time>2020-09-26T10:29:33.465Z</time>
      </trkpt>
      <trkpt lat="47.473370" lon="11.701807">
        <ele>932.037786</ele>
        <time>2020-09-26T10:29:47.461Z</time>
      </trkpt>
      <trkpt lat="47.473453" lon="11.701732">
        <ele>931.771679</ele>
        <time>2020-09-26T10:29:55.461Z</time>
      </trkpt>
      <trkpt lat="47.473515" lon="11.701632">
        <ele>931.520719</ele>
        <time>2020-09-26T10:30:05.469Z</time>
      </trkpt>
      <trkpt lat="47.473600" lon="11.701578">
        <ele>931.267614</ele>
        <time>2020-09-26T10:30:19.466Z</time>
      </trkpt>
      <trkpt lat="47.473692" lon="11.701557">
        <ele>931.012913</ele>
        <time>2020-09-26T10:30:32.501Z</time>
      </trkpt>
      <trkpt lat="47.473785" lon="11.701522">
        <ele>930.750351</ele>
        <time>2020-09-26T10:30:45.458Z</time>
      </trkpt>
      <trkpt lat="47.473877" lon="11.701505">
        <ele>930.496672</ele>
        <time>2020-09-26T10:30:55.462Z</time>
      </trkpt>
      <trkpt lat="47.473972" lon="11.701510">
        <ele>930.236577</ele>
        <time>2020-09-26T10:31:07.465Z</time>
      </trkpt>
      <trkpt lat="47.474055" lon="11.701575">
        <ele>929.979626</ele>
        <time>2020-09-26T10:31:22.483Z</time>
      </trkpt>
      <trkpt lat="47.474145" lon="11.701600">
        <ele>929.729073</ele>
        <time>2020-09-26T10:31:38.469Z</time>
      </trkpt>
      <trkpt lat="47.474227" lon="11.701673">
        <ele>929.467225</ele>
        <time>2020-09-26T10:31:50.481Z</time>
      </trkpt>
      <trkpt lat="47.474257" lon="11.701813">
        <ele>929.195609</ele>
        <time>2020-09-26T10:32:01.468Z</time>
      </trkpt>
      <trkpt lat="47.474308" lon="11.701935">
        <ele>928.930319</ele>
        <time>2020-09-26T10:32:10.464Z</time>
      </trkpt>
      <trkpt lat="47.474370" lon="11.702042">
        <ele>928.669674</ele>
        <time>2020-09-26T10:32:21.464Z</time>
      </trkpt>
      <trkpt lat="47.474447" lon="11.702133">
        <ele>928.602514</ele>
        <time>2020-09-26T10:32:32.502Z</time>
      </trkpt>
      <trkpt lat="47.474500" lon="11.702242">
        <ele>928.649045</ele>
        <time>2020-09-26T10:32:44.475Z</time>
      </trkpt>
      <trkpt lat="47.474537" lon="11.702365">
        <ele>928.695700</ele>
        <time>2020-09-26T10:32:53.462Z</time>
      </trkpt>
      <trkpt lat="47.474573" lon="11.702495">
        <ele>928.744384</ele>
        <time>2020-09-26T10:33:07.461Z</time>
      </trkpt>
      <trkpt lat="47.474645" lon="11.702582">
        <ele>928.792045</ele>
        <time>2020-09-26T10:33:19.466Z</time>
      </trkpt>
      <trkpt lat="47.474725" lon="11.702665">
        <ele>928.842140</ele>
        <time>2020-09-26T10:33:28.452Z</time>
      </trkpt>
      <trkpt lat="47.474808" lon="11.702715">
        <ele>928.888085</ele>
        <time>2020-09-26T10:33:37.469Z</time>
      </trkpt>
      <trkpt lat="47.474900" lon="11.702743">
        <ele>928.936241</ele>
        <time>2020-09-26T10:33:46.438Z</time>
      </trkpt>
      <trkpt lat="47.474987" lon="11.702795">
        <ele>928.984347</ele>
        <time>2020-09-26T10:33:57.461Z</time>
      </trkpt>
      <trkpt lat="47.475083" lon="11.702782">
        <ele>929.033771</ele>
        <time>2020-09-26T10:34:09.464Z</time>
      </trkpt>
      <trkpt lat="47.475178" lon="11.702767">
        <ele>929.082753</ele>
        <time>2020-09-26T10:34:24.461Z</time>
      </trkpt>
      <trkpt lat="47.475270" lon="11.702727">
        <ele>929.131915</ele>
        <time>2020-09-26T10:34:40.463Z</time>
      </trkpt>
      <trkpt lat="47.475348" lon="11.702808">
        <ele>929.180773</ele>
        <time>2020-09-26T10:34:55.465Z</time>
      </trkpt>
      <trkpt lat="47.475435" lon="11.702760">
        <ele>929.228378</ele>
        <time>2020-09-26T10:35:03.432Z</time>
      </trkpt>
      <trkpt lat="47.475523" lon="11.702727">
        <ele>929.274921</ele>
        <time>2020-09-26T10:35:16.456Z</time>
      </trkpt>
      <trkpt lat="47.475617" lon="11.702693">
        <ele>929.324533</ele>
        <time>2020-09-26T10:35:28.468Z</time>
      </trkpt>
      <trkpt lat="47.475708" lon="11.702718">
        <ele>929.371986</ele>
        <time>2020-09-26T10:35:45.465Z</time>
      </trkpt>
      <trkpt lat="47.475803" lon="11.702717">
        <ele>929.420692</ele>
        <time>2020-09-26T10:36:00.463Z</time>
      </trkpt>
      <trkpt lat="47.475895" lon="11.702677">
        <ele>929.469854</ele>
        <time>2020-09-26T10:36:06.466Z</time>
      </trkpt>
      <trkpt lat="47.475987" lon="11.702647">
        <ele>929.492707</ele>
        <time>2020-09-26T10:36:14.483Z</time>
      </trkpt>
      <trkpt lat="47.476075" lon="11.702602">
        <ele>929.492707</ele>
        <time>2020-09-26T10:36:23.462Z</time>
      </trkpt>
      <trkpt lat="47.476167" lon="11.702598">
        <ele>929.492707</ele>
        <time>2020-09-26T10:36:33.465Z</time>
      </trkpt>
      <trkpt lat="47.476250" lon="11.702518">
        <ele>929.492707</ele>
        <time>2020-09-26T10:36:45.465Z</time>
      </trkpt>
      <trkpt lat="47.476317" lon="11.702422">
        <ele>929.492707</ele>
        <time>2020-09-26T10:36:56.492Z</time>
      </trkpt>
      <trkpt lat="47.476377" lon="11.702315">
        <ele>929.492707</ele>
        <time>2020-09-26T10:37:07.468Z</time>
      </trkpt>
      <trkpt lat="47.476460" lon="11.702252">
        <ele>929.492707</ele>
        <time>2020-09-26T10:37:17.464Z</time>
      </trkpt>
      <trkpt lat="47.476550" lon="11.702197">
        <ele>929.492707</ele>
        <time>2020-09-26T10:37:24.466Z</time>
      </trkpt>
      <trkpt lat="47.476615" lon="11.702092">
        <ele>929.492707</ele>
        <time>2020-09-26T10:37:36.467Z</time>
      </trkpt>
      <trkpt lat="47.476623" lon="11.701950">
        <ele>929.492707</ele>
        <time>2020-09-26T10:38:13.462Z</time>
      </trkpt>
      <trkpt lat="47.476647" lon="11.701820">
        <ele>929.492707</ele>
        <time>2020-09-26T10:38:18.465Z</time>
      </trkpt>
      <trkpt lat="47.476717" lon="11.701718">
        <ele>929.492707</ele>
        <time>2020-09-26T10:41:08.481Z</time>
      </trkpt>
      <trkpt lat="47.476738" lon="11.701575">
        <ele>929.492707</ele>
        <time>2020-09-26T10:41:13.457Z</time>
      </trkpt>
      <trkpt lat="47.476782" lon="11.701758">
        <ele>929.492707</ele>
        <time>2020-09-26T10:41:23.459Z</time>
      </trkpt>
      <trkpt lat="47.476785" lon="11.701983">
        <ele>929.492707</ele>
        <time>2020-09-26T10:41:25.459Z</time>
      </trkpt>
      <trkpt lat="47.476800" lon="11.702120">
        <ele>929.492707</ele>
        <time>2020-09-26T10:41:27.462Z</time>
      </trkpt>
      <trkpt lat="47.476773" lon="11.702143">
        <ele>929.492707</ele>
        <time>2020-09-26T10:44:11.980Z</time>
      </trkpt>
    </trkseg>
  </trk>
</gpx>